<?xml version="1.0" encoding="UTF-8" standalone="no" ?>
<gpx xmlns="http://www.topografix.com/GPX/1/1" xmlns:xsi="http://www.w3.org/2001/XMLSchema-instance" xsi:schemaLocation="http://www.topografix.com/GPX/1/1 http://www.topografix.com/GPX/1/1/gpx.xsd" version="1.1" creator="VisuGPX - https://www.visugpx.com">
  <metadata>
    <name>Riaillé la Bénate</name>
    <desc><![CDATA[Rando au départ du parking lieu-dit "La Bénate" , vers St Ouen , passage de gué sur l'Erdre, passage dans le bourg de Riaillé, puis nous rejoignons l'étang de la Poitevinière. Retour par les sentiers de remembrement. ]]></desc>
  </metadata>
  <trk>
    <name><![CDATA[20180311155721-7nzlW]]></name>
    <trkseg>
      <trkpt lat="47.514" lon="-1.28812">
        <ele>24</ele>
        <time>2018-03-11T08:13:48Z</time>
      </trkpt>
      <trkpt lat="47.51391" lon="-1.28798">
        <ele>24</ele>
        <time>2018-03-11T08:15:23Z</time>
      </trkpt>
      <trkpt lat="47.5138" lon="-1.28802">
        <ele>24</ele>
        <time>2018-03-11T08:15:34Z</time>
      </trkpt>
      <trkpt lat="47.51367" lon="-1.28805">
        <ele>24</ele>
        <time>2018-03-11T08:15:45Z</time>
      </trkpt>
      <trkpt lat="47.51352" lon="-1.28804">
        <ele>24</ele>
        <time>2018-03-11T08:15:57Z</time>
      </trkpt>
      <trkpt lat="47.51338" lon="-1.28805">
        <ele>23</ele>
        <time>2018-03-11T08:16:08Z</time>
      </trkpt>
      <trkpt lat="47.51324" lon="-1.28823">
        <ele>23</ele>
        <time>2018-03-11T08:16:29Z</time>
      </trkpt>
      <trkpt lat="47.51308" lon="-1.28865">
        <ele>22</ele>
        <time>2018-03-11T08:17:05Z</time>
      </trkpt>
      <trkpt lat="47.51303" lon="-1.28892">
        <ele>22</ele>
        <time>2018-03-11T08:17:20Z</time>
      </trkpt>
      <trkpt lat="47.51298" lon="-1.28911">
        <ele>22</ele>
        <time>2018-03-11T08:17:29Z</time>
      </trkpt>
      <trkpt lat="47.51294" lon="-1.28929">
        <ele>22</ele>
        <time>2018-03-11T08:17:39Z</time>
      </trkpt>
      <trkpt lat="47.51291" lon="-1.28946">
        <ele>22</ele>
        <time>2018-03-11T08:17:49Z</time>
      </trkpt>
      <trkpt lat="47.51292" lon="-1.28973">
        <ele>23</ele>
        <time>2018-03-11T08:18:38Z</time>
      </trkpt>
      <trkpt lat="47.51292" lon="-1.28986">
        <ele>23</ele>
        <time>2018-03-11T08:18:57Z</time>
      </trkpt>
      <trkpt lat="47.5128" lon="-1.28981">
        <ele>23</ele>
        <time>2018-03-11T08:19:06Z</time>
      </trkpt>
      <trkpt lat="47.51271" lon="-1.28974">
        <ele>23</ele>
        <time>2018-03-11T08:19:14Z</time>
      </trkpt>
      <trkpt lat="47.51264" lon="-1.28983">
        <ele>23</ele>
        <time>2018-03-11T08:19:24Z</time>
      </trkpt>
      <trkpt lat="47.51262" lon="-1.28996">
        <ele>23</ele>
        <time>2018-03-11T08:19:34Z</time>
      </trkpt>
      <trkpt lat="47.5126" lon="-1.28991">
        <ele>23</ele>
        <time>2018-03-11T08:19:52Z</time>
      </trkpt>
      <trkpt lat="47.51252" lon="-1.28978">
        <ele>23</ele>
        <time>2018-03-11T08:19:59Z</time>
      </trkpt>
      <trkpt lat="47.51244" lon="-1.28969">
        <ele>22</ele>
        <time>2018-03-11T08:20:06Z</time>
      </trkpt>
      <trkpt lat="47.51234" lon="-1.28965">
        <ele>22</ele>
        <time>2018-03-11T08:20:13Z</time>
      </trkpt>
      <trkpt lat="47.51222" lon="-1.28963">
        <ele>22</ele>
        <time>2018-03-11T08:20:20Z</time>
      </trkpt>
      <trkpt lat="47.51212" lon="-1.28962">
        <ele>23</ele>
        <time>2018-03-11T08:20:28Z</time>
      </trkpt>
      <trkpt lat="47.51202" lon="-1.2896">
        <ele>23</ele>
        <time>2018-03-11T08:20:35Z</time>
      </trkpt>
      <trkpt lat="47.51193" lon="-1.28955">
        <ele>23</ele>
        <time>2018-03-11T08:20:43Z</time>
      </trkpt>
      <trkpt lat="47.51184" lon="-1.28948">
        <ele>22</ele>
        <time>2018-03-11T08:20:50Z</time>
      </trkpt>
      <trkpt lat="47.51177" lon="-1.28939">
        <ele>22</ele>
        <time>2018-03-11T08:20:57Z</time>
      </trkpt>
      <trkpt lat="47.51168" lon="-1.28931">
        <ele>22</ele>
        <time>2018-03-11T08:21:05Z</time>
      </trkpt>
      <trkpt lat="47.5116" lon="-1.28922">
        <ele>23</ele>
        <time>2018-03-11T08:21:12Z</time>
      </trkpt>
      <trkpt lat="47.51151" lon="-1.28915">
        <ele>23</ele>
        <time>2018-03-11T08:21:19Z</time>
      </trkpt>
      <trkpt lat="47.51143" lon="-1.28906">
        <ele>24</ele>
        <time>2018-03-11T08:21:28Z</time>
      </trkpt>
      <trkpt lat="47.51143" lon="-1.28892">
        <ele>24</ele>
        <time>2018-03-11T08:21:37Z</time>
      </trkpt>
      <trkpt lat="47.51149" lon="-1.2888">
        <ele>24</ele>
        <time>2018-03-11T08:21:44Z</time>
      </trkpt>
      <trkpt lat="47.51155" lon="-1.28869">
        <ele>24</ele>
        <time>2018-03-11T08:21:51Z</time>
      </trkpt>
      <trkpt lat="47.5116" lon="-1.28857">
        <ele>24</ele>
        <time>2018-03-11T08:21:58Z</time>
      </trkpt>
      <trkpt lat="47.51163" lon="-1.28843">
        <ele>23</ele>
        <time>2018-03-11T08:22:05Z</time>
      </trkpt>
      <trkpt lat="47.51163" lon="-1.28829">
        <ele>23</ele>
        <time>2018-03-11T08:22:12Z</time>
      </trkpt>
      <trkpt lat="47.5116" lon="-1.28816">
        <ele>24</ele>
        <time>2018-03-11T08:22:19Z</time>
      </trkpt>
      <trkpt lat="47.51157" lon="-1.288">
        <ele>24</ele>
        <time>2018-03-11T08:22:27Z</time>
      </trkpt>
      <trkpt lat="47.51154" lon="-1.28785">
        <ele>24</ele>
        <time>2018-03-11T08:22:37Z</time>
      </trkpt>
      <trkpt lat="47.51153" lon="-1.28779">
        <ele>24</ele>
        <time>2018-03-11T08:24:59Z</time>
      </trkpt>
      <trkpt lat="47.51142" lon="-1.28792">
        <ele>24</ele>
        <time>2018-03-11T08:25:07Z</time>
      </trkpt>
      <trkpt lat="47.51131" lon="-1.28803">
        <ele>24</ele>
        <time>2018-03-11T08:25:16Z</time>
      </trkpt>
      <trkpt lat="47.51121" lon="-1.28809">
        <ele>24</ele>
        <time>2018-03-11T08:25:25Z</time>
      </trkpt>
      <trkpt lat="47.5111" lon="-1.28816">
        <ele>25</ele>
        <time>2018-03-11T08:25:34Z</time>
      </trkpt>
      <trkpt lat="47.51099" lon="-1.28821">
        <ele>25</ele>
        <time>2018-03-11T08:25:43Z</time>
      </trkpt>
      <trkpt lat="47.5109" lon="-1.28825">
        <ele>25</ele>
        <time>2018-03-11T08:25:59Z</time>
      </trkpt>
      <trkpt lat="47.51082" lon="-1.28835">
        <ele>26</ele>
        <time>2018-03-11T08:26:09Z</time>
      </trkpt>
      <trkpt lat="47.51074" lon="-1.28848">
        <ele>26</ele>
        <time>2018-03-11T08:26:18Z</time>
      </trkpt>
      <trkpt lat="47.51067" lon="-1.28859">
        <ele>26</ele>
        <time>2018-03-11T08:26:28Z</time>
      </trkpt>
      <trkpt lat="47.51063" lon="-1.28874">
        <ele>27</ele>
        <time>2018-03-11T08:26:40Z</time>
      </trkpt>
      <trkpt lat="47.51068" lon="-1.28888">
        <ele>27</ele>
        <time>2018-03-11T08:26:48Z</time>
      </trkpt>
      <trkpt lat="47.51069" lon="-1.28904">
        <ele>26</ele>
        <time>2018-03-11T08:26:56Z</time>
      </trkpt>
      <trkpt lat="47.51076" lon="-1.28918">
        <ele>26</ele>
        <time>2018-03-11T08:27:04Z</time>
      </trkpt>
      <trkpt lat="47.51081" lon="-1.2893">
        <ele>26</ele>
        <time>2018-03-11T08:27:11Z</time>
      </trkpt>
      <trkpt lat="47.51084" lon="-1.28946">
        <ele>25</ele>
        <time>2018-03-11T08:27:19Z</time>
      </trkpt>
      <trkpt lat="47.51075" lon="-1.28955">
        <ele>27</ele>
        <time>2018-03-11T08:27:27Z</time>
      </trkpt>
      <trkpt lat="47.51066" lon="-1.28964">
        <ele>27</ele>
        <time>2018-03-11T08:27:35Z</time>
      </trkpt>
      <trkpt lat="47.51058" lon="-1.28974">
        <ele>27</ele>
        <time>2018-03-11T08:27:43Z</time>
      </trkpt>
      <trkpt lat="47.5105" lon="-1.28983">
        <ele>27</ele>
        <time>2018-03-11T08:27:51Z</time>
      </trkpt>
      <trkpt lat="47.51042" lon="-1.28993">
        <ele>27</ele>
        <time>2018-03-11T08:27:59Z</time>
      </trkpt>
      <trkpt lat="47.51034" lon="-1.29003">
        <ele>28</ele>
        <time>2018-03-11T08:28:07Z</time>
      </trkpt>
      <trkpt lat="47.51026" lon="-1.29013">
        <ele>28</ele>
        <time>2018-03-11T08:28:16Z</time>
      </trkpt>
      <trkpt lat="47.51016" lon="-1.29019">
        <ele>28</ele>
        <time>2018-03-11T08:28:26Z</time>
      </trkpt>
      <trkpt lat="47.51006" lon="-1.29028">
        <ele>28</ele>
        <time>2018-03-11T08:28:34Z</time>
      </trkpt>
      <trkpt lat="47.50996" lon="-1.29034">
        <ele>31</ele>
        <time>2018-03-11T08:28:43Z</time>
      </trkpt>
      <trkpt lat="47.50986" lon="-1.29041">
        <ele>31</ele>
        <time>2018-03-11T08:28:51Z</time>
      </trkpt>
      <trkpt lat="47.50975" lon="-1.29048">
        <ele>31</ele>
        <time>2018-03-11T08:29:00Z</time>
      </trkpt>
      <trkpt lat="47.50966" lon="-1.29056">
        <ele>32</ele>
        <time>2018-03-11T08:29:08Z</time>
      </trkpt>
      <trkpt lat="47.50958" lon="-1.29063">
        <ele>32</ele>
        <time>2018-03-11T08:29:17Z</time>
      </trkpt>
      <trkpt lat="47.50951" lon="-1.29072">
        <ele>32</ele>
        <time>2018-03-11T08:29:25Z</time>
      </trkpt>
      <trkpt lat="47.50941" lon="-1.29081">
        <ele>33</ele>
        <time>2018-03-11T08:29:34Z</time>
      </trkpt>
      <trkpt lat="47.50933" lon="-1.29089">
        <ele>33</ele>
        <time>2018-03-11T08:29:42Z</time>
      </trkpt>
      <trkpt lat="47.50924" lon="-1.29099">
        <ele>34</ele>
        <time>2018-03-11T08:29:52Z</time>
      </trkpt>
      <trkpt lat="47.50915" lon="-1.2911">
        <ele>35</ele>
        <time>2018-03-11T08:30:01Z</time>
      </trkpt>
      <trkpt lat="47.50905" lon="-1.2912">
        <ele>35</ele>
        <time>2018-03-11T08:30:11Z</time>
      </trkpt>
      <trkpt lat="47.50894" lon="-1.29132">
        <ele>36</ele>
        <time>2018-03-11T08:30:21Z</time>
      </trkpt>
      <trkpt lat="47.50886" lon="-1.29141">
        <ele>36</ele>
        <time>2018-03-11T08:30:30Z</time>
      </trkpt>
      <trkpt lat="47.50877" lon="-1.29152">
        <ele>36</ele>
        <time>2018-03-11T08:30:38Z</time>
      </trkpt>
      <trkpt lat="47.50867" lon="-1.29162">
        <ele>37</ele>
        <time>2018-03-11T08:30:47Z</time>
      </trkpt>
      <trkpt lat="47.50859" lon="-1.29171">
        <ele>38</ele>
        <time>2018-03-11T08:30:56Z</time>
      </trkpt>
      <trkpt lat="47.50851" lon="-1.2918">
        <ele>39</ele>
        <time>2018-03-11T08:31:05Z</time>
      </trkpt>
      <trkpt lat="47.50842" lon="-1.2919">
        <ele>39</ele>
        <time>2018-03-11T08:31:15Z</time>
      </trkpt>
      <trkpt lat="47.50831" lon="-1.292">
        <ele>43</ele>
        <time>2018-03-11T08:31:25Z</time>
      </trkpt>
      <trkpt lat="47.50821" lon="-1.29211">
        <ele>44</ele>
        <time>2018-03-11T08:31:35Z</time>
      </trkpt>
      <trkpt lat="47.50812" lon="-1.29221">
        <ele>44</ele>
        <time>2018-03-11T08:31:44Z</time>
      </trkpt>
      <trkpt lat="47.50803" lon="-1.2923">
        <ele>45</ele>
        <time>2018-03-11T08:31:53Z</time>
      </trkpt>
      <trkpt lat="47.50794" lon="-1.29238">
        <ele>45</ele>
        <time>2018-03-11T08:32:02Z</time>
      </trkpt>
      <trkpt lat="47.50786" lon="-1.29247">
        <ele>46</ele>
        <time>2018-03-11T08:32:11Z</time>
      </trkpt>
      <trkpt lat="47.50777" lon="-1.29257">
        <ele>48</ele>
        <time>2018-03-11T08:32:20Z</time>
      </trkpt>
      <trkpt lat="47.50767" lon="-1.29264">
        <ele>49</ele>
        <time>2018-03-11T08:32:30Z</time>
      </trkpt>
      <trkpt lat="47.50758" lon="-1.2927">
        <ele>49</ele>
        <time>2018-03-11T08:32:42Z</time>
      </trkpt>
      <trkpt lat="47.50749" lon="-1.29275">
        <ele>53</ele>
        <time>2018-03-11T08:32:52Z</time>
      </trkpt>
      <trkpt lat="47.50738" lon="-1.29279">
        <ele>54</ele>
        <time>2018-03-11T08:33:02Z</time>
      </trkpt>
      <trkpt lat="47.50725" lon="-1.29281">
        <ele>54</ele>
        <time>2018-03-11T08:33:13Z</time>
      </trkpt>
      <trkpt lat="47.50713" lon="-1.29284">
        <ele>55</ele>
        <time>2018-03-11T08:33:23Z</time>
      </trkpt>
      <trkpt lat="47.50703" lon="-1.29286">
        <ele>55</ele>
        <time>2018-03-11T08:33:33Z</time>
      </trkpt>
      <trkpt lat="47.50692" lon="-1.29288">
        <ele>55</ele>
        <time>2018-03-11T08:33:43Z</time>
      </trkpt>
      <trkpt lat="47.50681" lon="-1.29289">
        <ele>56</ele>
        <time>2018-03-11T08:33:52Z</time>
      </trkpt>
      <trkpt lat="47.50671" lon="-1.29291">
        <ele>56</ele>
        <time>2018-03-11T08:34:01Z</time>
      </trkpt>
      <trkpt lat="47.50659" lon="-1.29294">
        <ele>60</ele>
        <time>2018-03-11T08:34:11Z</time>
      </trkpt>
      <trkpt lat="47.50649" lon="-1.29298">
        <ele>60</ele>
        <time>2018-03-11T08:34:20Z</time>
      </trkpt>
      <trkpt lat="47.50639" lon="-1.29298">
        <ele>61</ele>
        <time>2018-03-11T08:34:29Z</time>
      </trkpt>
      <trkpt lat="47.50629" lon="-1.29299">
        <ele>61</ele>
        <time>2018-03-11T08:34:38Z</time>
      </trkpt>
      <trkpt lat="47.50617" lon="-1.29301">
        <ele>61</ele>
        <time>2018-03-11T08:34:47Z</time>
      </trkpt>
      <trkpt lat="47.50607" lon="-1.29301">
        <ele>62</ele>
        <time>2018-03-11T08:34:56Z</time>
      </trkpt>
      <trkpt lat="47.50596" lon="-1.293">
        <ele>62</ele>
        <time>2018-03-11T08:35:04Z</time>
      </trkpt>
      <trkpt lat="47.50586" lon="-1.293">
        <ele>62</ele>
        <time>2018-03-11T08:35:12Z</time>
      </trkpt>
      <trkpt lat="47.50576" lon="-1.293">
        <ele>65</ele>
        <time>2018-03-11T08:35:20Z</time>
      </trkpt>
      <trkpt lat="47.50566" lon="-1.29302">
        <ele>65</ele>
        <time>2018-03-11T08:35:28Z</time>
      </trkpt>
      <trkpt lat="47.50557" lon="-1.29307">
        <ele>65</ele>
        <time>2018-03-11T08:35:36Z</time>
      </trkpt>
      <trkpt lat="47.50547" lon="-1.29313">
        <ele>66</ele>
        <time>2018-03-11T08:35:44Z</time>
      </trkpt>
      <trkpt lat="47.50537" lon="-1.29319">
        <ele>66</ele>
        <time>2018-03-11T08:35:52Z</time>
      </trkpt>
      <trkpt lat="47.50527" lon="-1.29323">
        <ele>66</ele>
        <time>2018-03-11T08:36:00Z</time>
      </trkpt>
      <trkpt lat="47.50516" lon="-1.29327">
        <ele>67</ele>
        <time>2018-03-11T08:36:08Z</time>
      </trkpt>
      <trkpt lat="47.50506" lon="-1.2933">
        <ele>67</ele>
        <time>2018-03-11T08:36:16Z</time>
      </trkpt>
      <trkpt lat="47.50496" lon="-1.29334">
        <ele>68</ele>
        <time>2018-03-11T08:36:24Z</time>
      </trkpt>
      <trkpt lat="47.50486" lon="-1.29338">
        <ele>68</ele>
        <time>2018-03-11T08:36:32Z</time>
      </trkpt>
      <trkpt lat="47.50476" lon="-1.29342">
        <ele>68</ele>
        <time>2018-03-11T08:38:18Z</time>
      </trkpt>
      <trkpt lat="47.50476" lon="-1.29363">
        <ele>68</ele>
        <time>2018-03-11T08:39:01Z</time>
      </trkpt>
      <trkpt lat="47.50477" lon="-1.2938">
        <ele>68</ele>
        <time>2018-03-11T08:39:10Z</time>
      </trkpt>
      <trkpt lat="47.50477" lon="-1.29396">
        <ele>68</ele>
        <time>2018-03-11T08:39:19Z</time>
      </trkpt>
      <trkpt lat="47.50478" lon="-1.29412">
        <ele>68</ele>
        <time>2018-03-11T08:39:27Z</time>
      </trkpt>
      <trkpt lat="47.50479" lon="-1.29429">
        <ele>68</ele>
        <time>2018-03-11T08:39:36Z</time>
      </trkpt>
      <trkpt lat="47.50481" lon="-1.29446">
        <ele>68</ele>
        <time>2018-03-11T08:39:45Z</time>
      </trkpt>
      <trkpt lat="47.50484" lon="-1.29462">
        <ele>68</ele>
        <time>2018-03-11T08:39:54Z</time>
      </trkpt>
      <trkpt lat="47.50489" lon="-1.29478">
        <ele>68</ele>
        <time>2018-03-11T08:40:03Z</time>
      </trkpt>
      <trkpt lat="47.50497" lon="-1.29489">
        <ele>68</ele>
        <time>2018-03-11T08:40:11Z</time>
      </trkpt>
      <trkpt lat="47.50506" lon="-1.29497">
        <ele>68</ele>
        <time>2018-03-11T08:40:20Z</time>
      </trkpt>
      <trkpt lat="47.50514" lon="-1.29502">
        <ele>68</ele>
        <time>2018-03-11T08:40:28Z</time>
      </trkpt>
      <trkpt lat="47.50524" lon="-1.29511">
        <ele>67</ele>
        <time>2018-03-11T08:40:37Z</time>
      </trkpt>
      <trkpt lat="47.50535" lon="-1.29524">
        <ele>67</ele>
        <time>2018-03-11T08:40:46Z</time>
      </trkpt>
      <trkpt lat="47.50546" lon="-1.29536">
        <ele>67</ele>
        <time>2018-03-11T08:40:55Z</time>
      </trkpt>
      <trkpt lat="47.50555" lon="-1.29549">
        <ele>67</ele>
        <time>2018-03-11T08:41:04Z</time>
      </trkpt>
      <trkpt lat="47.50563" lon="-1.2956">
        <ele>67</ele>
        <time>2018-03-11T08:41:14Z</time>
      </trkpt>
      <trkpt lat="47.50579" lon="-1.29585">
        <ele>66</ele>
        <time>2018-03-11T08:41:39Z</time>
      </trkpt>
      <trkpt lat="47.50587" lon="-1.29598">
        <ele>65</ele>
        <time>2018-03-11T08:41:49Z</time>
      </trkpt>
      <trkpt lat="47.50594" lon="-1.29611">
        <ele>64</ele>
        <time>2018-03-11T08:41:59Z</time>
      </trkpt>
      <trkpt lat="47.50602" lon="-1.29623">
        <ele>64</ele>
        <time>2018-03-11T08:42:08Z</time>
      </trkpt>
      <trkpt lat="47.50609" lon="-1.29635">
        <ele>63</ele>
        <time>2018-03-11T08:42:17Z</time>
      </trkpt>
      <trkpt lat="47.50617" lon="-1.29648">
        <ele>63</ele>
        <time>2018-03-11T08:42:27Z</time>
      </trkpt>
      <trkpt lat="47.50625" lon="-1.29659">
        <ele>62</ele>
        <time>2018-03-11T08:42:36Z</time>
      </trkpt>
      <trkpt lat="47.50631" lon="-1.2967">
        <ele>60</ele>
        <time>2018-03-11T08:42:45Z</time>
      </trkpt>
      <trkpt lat="47.50639" lon="-1.29682">
        <ele>60</ele>
        <time>2018-03-11T08:42:55Z</time>
      </trkpt>
      <trkpt lat="47.50646" lon="-1.29692">
        <ele>59</ele>
        <time>2018-03-11T08:43:03Z</time>
      </trkpt>
      <trkpt lat="47.50653" lon="-1.29703">
        <ele>59</ele>
        <time>2018-03-11T08:43:12Z</time>
      </trkpt>
      <trkpt lat="47.50662" lon="-1.29713">
        <ele>58</ele>
        <time>2018-03-11T08:43:21Z</time>
      </trkpt>
      <trkpt lat="47.5067" lon="-1.29726">
        <ele>54</ele>
        <time>2018-03-11T08:43:31Z</time>
      </trkpt>
      <trkpt lat="47.50676" lon="-1.2974">
        <ele>54</ele>
        <time>2018-03-11T08:43:40Z</time>
      </trkpt>
      <trkpt lat="47.5068" lon="-1.29757">
        <ele>52</ele>
        <time>2018-03-11T08:43:50Z</time>
      </trkpt>
      <trkpt lat="47.50684" lon="-1.29775">
        <ele>51</ele>
        <time>2018-03-11T08:44:00Z</time>
      </trkpt>
      <trkpt lat="47.50686" lon="-1.29793">
        <ele>50</ele>
        <time>2018-03-11T08:44:10Z</time>
      </trkpt>
      <trkpt lat="47.50688" lon="-1.29812">
        <ele>50</ele>
        <time>2018-03-11T08:44:19Z</time>
      </trkpt>
      <trkpt lat="47.5069" lon="-1.29831">
        <ele>50</ele>
        <time>2018-03-11T08:44:29Z</time>
      </trkpt>
      <trkpt lat="47.50691" lon="-1.29848">
        <ele>48</ele>
        <time>2018-03-11T08:44:38Z</time>
      </trkpt>
      <trkpt lat="47.50695" lon="-1.29864">
        <ele>47</ele>
        <time>2018-03-11T08:44:48Z</time>
      </trkpt>
      <trkpt lat="47.50701" lon="-1.2988">
        <ele>46</ele>
        <time>2018-03-11T08:44:57Z</time>
      </trkpt>
      <trkpt lat="47.50707" lon="-1.29892">
        <ele>46</ele>
        <time>2018-03-11T08:45:06Z</time>
      </trkpt>
      <trkpt lat="47.50715" lon="-1.29904">
        <ele>45</ele>
        <time>2018-03-11T08:45:14Z</time>
      </trkpt>
      <trkpt lat="47.50722" lon="-1.29919">
        <ele>43</ele>
        <time>2018-03-11T08:45:23Z</time>
      </trkpt>
      <trkpt lat="47.50729" lon="-1.2993">
        <ele>43</ele>
        <time>2018-03-11T08:45:31Z</time>
      </trkpt>
      <trkpt lat="47.50737" lon="-1.29943">
        <ele>43</ele>
        <time>2018-03-11T08:45:39Z</time>
      </trkpt>
      <trkpt lat="47.50743" lon="-1.29955">
        <ele>43</ele>
        <time>2018-03-11T08:45:47Z</time>
      </trkpt>
      <trkpt lat="47.5075" lon="-1.29968">
        <ele>42</ele>
        <time>2018-03-11T08:45:56Z</time>
      </trkpt>
      <trkpt lat="47.50754" lon="-1.29984">
        <ele>39</ele>
        <time>2018-03-11T08:46:06Z</time>
      </trkpt>
      <trkpt lat="47.50756" lon="-1.30004">
        <ele>38</ele>
        <time>2018-03-11T08:46:18Z</time>
      </trkpt>
      <trkpt lat="47.50756" lon="-1.30029">
        <ele>37</ele>
        <time>2018-03-11T08:46:44Z</time>
      </trkpt>
      <trkpt lat="47.50753" lon="-1.30056">
        <ele>36</ele>
        <time>2018-03-11T08:47:12Z</time>
      </trkpt>
      <trkpt lat="47.50745" lon="-1.30069">
        <ele>38</ele>
        <time>2018-03-11T08:47:21Z</time>
      </trkpt>
      <trkpt lat="47.50736" lon="-1.30081">
        <ele>38</ele>
        <time>2018-03-11T08:47:31Z</time>
      </trkpt>
      <trkpt lat="47.50727" lon="-1.30093">
        <ele>38</ele>
        <time>2018-03-11T08:47:41Z</time>
      </trkpt>
      <trkpt lat="47.50717" lon="-1.30103">
        <ele>39</ele>
        <time>2018-03-11T08:47:50Z</time>
      </trkpt>
      <trkpt lat="47.50708" lon="-1.30114">
        <ele>40</ele>
        <time>2018-03-11T08:48:00Z</time>
      </trkpt>
      <trkpt lat="47.50697" lon="-1.30125">
        <ele>40</ele>
        <time>2018-03-11T08:48:09Z</time>
      </trkpt>
      <trkpt lat="47.50687" lon="-1.30139">
        <ele>41</ele>
        <time>2018-03-11T08:48:20Z</time>
      </trkpt>
      <trkpt lat="47.50676" lon="-1.30161">
        <ele>42</ele>
        <time>2018-03-11T08:48:35Z</time>
      </trkpt>
      <trkpt lat="47.50661" lon="-1.30188">
        <ele>46</ele>
        <time>2018-03-11T08:48:53Z</time>
      </trkpt>
      <trkpt lat="47.50653" lon="-1.30204">
        <ele>47</ele>
        <time>2018-03-11T08:49:03Z</time>
      </trkpt>
      <trkpt lat="47.50647" lon="-1.30219">
        <ele>47</ele>
        <time>2018-03-11T08:49:12Z</time>
      </trkpt>
      <trkpt lat="47.50638" lon="-1.30233">
        <ele>48</ele>
        <time>2018-03-11T08:49:22Z</time>
      </trkpt>
      <trkpt lat="47.50629" lon="-1.30247">
        <ele>48</ele>
        <time>2018-03-11T08:49:33Z</time>
      </trkpt>
      <trkpt lat="47.50623" lon="-1.30263">
        <ele>47</ele>
        <time>2018-03-11T08:49:43Z</time>
      </trkpt>
      <trkpt lat="47.50615" lon="-1.30287">
        <ele>47</ele>
        <time>2018-03-11T08:50:02Z</time>
      </trkpt>
      <trkpt lat="47.50609" lon="-1.30304">
        <ele>47</ele>
        <time>2018-03-11T08:50:14Z</time>
      </trkpt>
      <trkpt lat="47.506" lon="-1.30319">
        <ele>47</ele>
        <time>2018-03-11T08:50:24Z</time>
      </trkpt>
      <trkpt lat="47.50592" lon="-1.30335">
        <ele>47</ele>
        <time>2018-03-11T08:50:36Z</time>
      </trkpt>
      <trkpt lat="47.50584" lon="-1.30349">
        <ele>46</ele>
        <time>2018-03-11T08:50:46Z</time>
      </trkpt>
      <trkpt lat="47.50576" lon="-1.30364">
        <ele>51</ele>
        <time>2018-03-11T08:50:56Z</time>
      </trkpt>
      <trkpt lat="47.50568" lon="-1.30379">
        <ele>51</ele>
        <time>2018-03-11T08:51:07Z</time>
      </trkpt>
      <trkpt lat="47.50558" lon="-1.30393">
        <ele>51</ele>
        <time>2018-03-11T08:51:17Z</time>
      </trkpt>
      <trkpt lat="47.5055" lon="-1.30406">
        <ele>51</ele>
        <time>2018-03-11T08:51:27Z</time>
      </trkpt>
      <trkpt lat="47.50541" lon="-1.3042">
        <ele>50</ele>
        <time>2018-03-11T08:52:22Z</time>
      </trkpt>
      <trkpt lat="47.5053" lon="-1.30423">
        <ele>51</ele>
        <time>2018-03-11T08:52:38Z</time>
      </trkpt>
      <trkpt lat="47.5052" lon="-1.30429">
        <ele>52</ele>
        <time>2018-03-11T08:52:48Z</time>
      </trkpt>
      <trkpt lat="47.50508" lon="-1.30436">
        <ele>52</ele>
        <time>2018-03-11T08:52:58Z</time>
      </trkpt>
      <trkpt lat="47.50498" lon="-1.30442">
        <ele>53</ele>
        <time>2018-03-11T08:53:05Z</time>
      </trkpt>
      <trkpt lat="47.50487" lon="-1.30448">
        <ele>52</ele>
        <time>2018-03-11T08:53:15Z</time>
      </trkpt>
      <trkpt lat="47.50475" lon="-1.30455">
        <ele>52</ele>
        <time>2018-03-11T08:53:25Z</time>
      </trkpt>
      <trkpt lat="47.50462" lon="-1.30461">
        <ele>51</ele>
        <time>2018-03-11T08:53:35Z</time>
      </trkpt>
      <trkpt lat="47.50449" lon="-1.30469">
        <ele>50</ele>
        <time>2018-03-11T08:53:44Z</time>
      </trkpt>
      <trkpt lat="47.50438" lon="-1.30477">
        <ele>50</ele>
        <time>2018-03-11T08:53:52Z</time>
      </trkpt>
      <trkpt lat="47.50424" lon="-1.30486">
        <ele>48</ele>
        <time>2018-03-11T08:54:03Z</time>
      </trkpt>
      <trkpt lat="47.5041" lon="-1.30492">
        <ele>46</ele>
        <time>2018-03-11T08:54:13Z</time>
      </trkpt>
      <trkpt lat="47.50395" lon="-1.30497">
        <ele>45</ele>
        <time>2018-03-11T08:54:25Z</time>
      </trkpt>
      <trkpt lat="47.50377" lon="-1.30501">
        <ele>42</ele>
        <time>2018-03-11T08:54:38Z</time>
      </trkpt>
      <trkpt lat="47.50362" lon="-1.30508">
        <ele>41</ele>
        <time>2018-03-11T08:54:47Z</time>
      </trkpt>
      <trkpt lat="47.50352" lon="-1.30518">
        <ele>41</ele>
        <time>2018-03-11T08:54:56Z</time>
      </trkpt>
      <trkpt lat="47.50343" lon="-1.30532">
        <ele>40</ele>
        <time>2018-03-11T08:55:05Z</time>
      </trkpt>
      <trkpt lat="47.50335" lon="-1.30548">
        <ele>40</ele>
        <time>2018-03-11T08:55:15Z</time>
      </trkpt>
      <trkpt lat="47.50328" lon="-1.30562">
        <ele>38</ele>
        <time>2018-03-11T08:55:23Z</time>
      </trkpt>
      <trkpt lat="47.50319" lon="-1.30577">
        <ele>38</ele>
        <time>2018-03-11T08:55:31Z</time>
      </trkpt>
      <trkpt lat="47.5031" lon="-1.30591">
        <ele>36</ele>
        <time>2018-03-11T08:55:38Z</time>
      </trkpt>
      <trkpt lat="47.50301" lon="-1.30604">
        <ele>35</ele>
        <time>2018-03-11T08:55:46Z</time>
      </trkpt>
      <trkpt lat="47.50293" lon="-1.30615">
        <ele>35</ele>
        <time>2018-03-11T08:55:53Z</time>
      </trkpt>
      <trkpt lat="47.50285" lon="-1.30626">
        <ele>35</ele>
        <time>2018-03-11T08:56:00Z</time>
      </trkpt>
      <trkpt lat="47.50276" lon="-1.30639">
        <ele>35</ele>
        <time>2018-03-11T08:56:08Z</time>
      </trkpt>
      <trkpt lat="47.50267" lon="-1.30651">
        <ele>35</ele>
        <time>2018-03-11T08:56:16Z</time>
      </trkpt>
      <trkpt lat="47.5026" lon="-1.30665">
        <ele>35</ele>
        <time>2018-03-11T08:56:25Z</time>
      </trkpt>
      <trkpt lat="47.50253" lon="-1.30678">
        <ele>33</ele>
        <time>2018-03-11T08:56:34Z</time>
      </trkpt>
      <trkpt lat="47.50244" lon="-1.30689">
        <ele>34</ele>
        <time>2018-03-11T08:56:41Z</time>
      </trkpt>
      <trkpt lat="47.50235" lon="-1.30701">
        <ele>33</ele>
        <time>2018-03-11T08:56:49Z</time>
      </trkpt>
      <trkpt lat="47.50224" lon="-1.3071">
        <ele>33</ele>
        <time>2018-03-11T08:56:58Z</time>
      </trkpt>
      <trkpt lat="47.50208" lon="-1.30719">
        <ele>33</ele>
        <time>2018-03-11T08:57:12Z</time>
      </trkpt>
      <trkpt lat="47.50193" lon="-1.30726">
        <ele>32</ele>
        <time>2018-03-11T08:57:25Z</time>
      </trkpt>
      <trkpt lat="47.50192" lon="-1.30743">
        <ele>32</ele>
        <time>2018-03-11T08:57:39Z</time>
      </trkpt>
      <trkpt lat="47.50198" lon="-1.30758">
        <ele>31</ele>
        <time>2018-03-11T08:57:50Z</time>
      </trkpt>
      <trkpt lat="47.50207" lon="-1.30769">
        <ele>31</ele>
        <time>2018-03-11T08:58:01Z</time>
      </trkpt>
      <trkpt lat="47.50213" lon="-1.30788">
        <ele>31</ele>
        <time>2018-03-11T08:58:14Z</time>
      </trkpt>
      <trkpt lat="47.50211" lon="-1.30804">
        <ele>31</ele>
        <time>2018-03-11T08:58:27Z</time>
      </trkpt>
      <trkpt lat="47.50208" lon="-1.30822">
        <ele>31</ele>
        <time>2018-03-11T08:58:39Z</time>
      </trkpt>
      <trkpt lat="47.50206" lon="-1.30839">
        <ele>32</ele>
        <time>2018-03-11T08:58:50Z</time>
      </trkpt>
      <trkpt lat="47.50204" lon="-1.30856">
        <ele>32</ele>
        <time>2018-03-11T08:59:00Z</time>
      </trkpt>
      <trkpt lat="47.50203" lon="-1.30871">
        <ele>33</ele>
        <time>2018-03-11T08:59:09Z</time>
      </trkpt>
      <trkpt lat="47.502" lon="-1.30885">
        <ele>33</ele>
        <time>2018-03-11T08:59:18Z</time>
      </trkpt>
      <trkpt lat="47.50197" lon="-1.309">
        <ele>33</ele>
        <time>2018-03-11T08:59:26Z</time>
      </trkpt>
      <trkpt lat="47.50195" lon="-1.30914">
        <ele>33</ele>
        <time>2018-03-11T08:59:34Z</time>
      </trkpt>
      <trkpt lat="47.50193" lon="-1.30929">
        <ele>34</ele>
        <time>2018-03-11T08:59:43Z</time>
      </trkpt>
      <trkpt lat="47.5019" lon="-1.30947">
        <ele>35</ele>
        <time>2018-03-11T08:59:53Z</time>
      </trkpt>
      <trkpt lat="47.50187" lon="-1.30966">
        <ele>35</ele>
        <time>2018-03-11T09:00:03Z</time>
      </trkpt>
      <trkpt lat="47.50185" lon="-1.30982">
        <ele>35</ele>
        <time>2018-03-11T09:00:12Z</time>
      </trkpt>
      <trkpt lat="47.50182" lon="-1.30996">
        <ele>35</ele>
        <time>2018-03-11T09:00:20Z</time>
      </trkpt>
      <trkpt lat="47.5018" lon="-1.31011">
        <ele>36</ele>
        <time>2018-03-11T09:00:28Z</time>
      </trkpt>
      <trkpt lat="47.50178" lon="-1.31026">
        <ele>36</ele>
        <time>2018-03-11T09:00:36Z</time>
      </trkpt>
      <trkpt lat="47.50175" lon="-1.31041">
        <ele>36</ele>
        <time>2018-03-11T09:00:45Z</time>
      </trkpt>
      <trkpt lat="47.50173" lon="-1.31057">
        <ele>36</ele>
        <time>2018-03-11T09:00:55Z</time>
      </trkpt>
      <trkpt lat="47.50178" lon="-1.3107">
        <ele>36</ele>
        <time>2018-03-11T09:01:08Z</time>
      </trkpt>
      <trkpt lat="47.50189" lon="-1.31075">
        <ele>36</ele>
        <time>2018-03-11T09:01:19Z</time>
      </trkpt>
      <trkpt lat="47.50198" lon="-1.3108">
        <ele>37</ele>
        <time>2018-03-11T09:01:28Z</time>
      </trkpt>
      <trkpt lat="47.50208" lon="-1.31085">
        <ele>38</ele>
        <time>2018-03-11T09:01:38Z</time>
      </trkpt>
      <trkpt lat="47.50218" lon="-1.31091">
        <ele>39</ele>
        <time>2018-03-11T09:01:48Z</time>
      </trkpt>
      <trkpt lat="47.50226" lon="-1.31101">
        <ele>39</ele>
        <time>2018-03-11T09:01:58Z</time>
      </trkpt>
      <trkpt lat="47.50225" lon="-1.31117">
        <ele>39</ele>
        <time>2018-03-11T09:02:07Z</time>
      </trkpt>
      <trkpt lat="47.50222" lon="-1.31132">
        <ele>39</ele>
        <time>2018-03-11T09:02:16Z</time>
      </trkpt>
      <trkpt lat="47.50218" lon="-1.3115">
        <ele>40</ele>
        <time>2018-03-11T09:02:27Z</time>
      </trkpt>
      <trkpt lat="47.50213" lon="-1.31167">
        <ele>41</ele>
        <time>2018-03-11T09:02:37Z</time>
      </trkpt>
      <trkpt lat="47.50208" lon="-1.31183">
        <ele>40</ele>
        <time>2018-03-11T09:02:47Z</time>
      </trkpt>
      <trkpt lat="47.50204" lon="-1.312">
        <ele>40</ele>
        <time>2018-03-11T09:02:57Z</time>
      </trkpt>
      <trkpt lat="47.50199" lon="-1.31216">
        <ele>40</ele>
        <time>2018-03-11T09:03:06Z</time>
      </trkpt>
      <trkpt lat="47.50195" lon="-1.3123">
        <ele>40</ele>
        <time>2018-03-11T09:03:15Z</time>
      </trkpt>
      <trkpt lat="47.50191" lon="-1.31245">
        <ele>40</ele>
        <time>2018-03-11T09:03:24Z</time>
      </trkpt>
      <trkpt lat="47.50187" lon="-1.31261">
        <ele>40</ele>
        <time>2018-03-11T09:03:33Z</time>
      </trkpt>
      <trkpt lat="47.50182" lon="-1.31277">
        <ele>40</ele>
        <time>2018-03-11T09:03:42Z</time>
      </trkpt>
      <trkpt lat="47.50178" lon="-1.31292">
        <ele>40</ele>
        <time>2018-03-11T09:03:51Z</time>
      </trkpt>
      <trkpt lat="47.50172" lon="-1.31307">
        <ele>40</ele>
        <time>2018-03-11T09:04:00Z</time>
      </trkpt>
      <trkpt lat="47.5017" lon="-1.31322">
        <ele>40</ele>
        <time>2018-03-11T09:04:09Z</time>
      </trkpt>
      <trkpt lat="47.50169" lon="-1.31338">
        <ele>39</ele>
        <time>2018-03-11T09:04:19Z</time>
      </trkpt>
      <trkpt lat="47.50167" lon="-1.31375">
        <ele>37</ele>
        <time>2018-03-11T09:05:05Z</time>
      </trkpt>
      <trkpt lat="47.50168" lon="-1.31391">
        <ele>37</ele>
        <time>2018-03-11T09:05:13Z</time>
      </trkpt>
      <trkpt lat="47.50168" lon="-1.31405">
        <ele>36</ele>
        <time>2018-03-11T09:05:20Z</time>
      </trkpt>
      <trkpt lat="47.50167" lon="-1.31419">
        <ele>36</ele>
        <time>2018-03-11T09:05:27Z</time>
      </trkpt>
      <trkpt lat="47.50166" lon="-1.31435">
        <ele>37</ele>
        <time>2018-03-11T09:05:34Z</time>
      </trkpt>
      <trkpt lat="47.50165" lon="-1.31449">
        <ele>37</ele>
        <time>2018-03-11T09:05:41Z</time>
      </trkpt>
      <trkpt lat="47.50164" lon="-1.31464">
        <ele>37</ele>
        <time>2018-03-11T09:05:48Z</time>
      </trkpt>
      <trkpt lat="47.50163" lon="-1.31481">
        <ele>36</ele>
        <time>2018-03-11T09:05:56Z</time>
      </trkpt>
      <trkpt lat="47.50162" lon="-1.31496">
        <ele>35</ele>
        <time>2018-03-11T09:06:04Z</time>
      </trkpt>
      <trkpt lat="47.50161" lon="-1.31511">
        <ele>36</ele>
        <time>2018-03-11T09:06:12Z</time>
      </trkpt>
      <trkpt lat="47.50165" lon="-1.31522">
        <ele>36</ele>
        <time>2018-03-11T09:06:19Z</time>
      </trkpt>
      <trkpt lat="47.50175" lon="-1.31521">
        <ele>33</ele>
        <time>2018-03-11T09:06:26Z</time>
      </trkpt>
      <trkpt lat="47.50184" lon="-1.31517">
        <ele>33</ele>
        <time>2018-03-11T09:06:33Z</time>
      </trkpt>
      <trkpt lat="47.50194" lon="-1.31513">
        <ele>33</ele>
        <time>2018-03-11T09:06:40Z</time>
      </trkpt>
      <trkpt lat="47.50203" lon="-1.31508">
        <ele>33</ele>
        <time>2018-03-11T09:06:47Z</time>
      </trkpt>
      <trkpt lat="47.50212" lon="-1.31503">
        <ele>32</ele>
        <time>2018-03-11T09:06:55Z</time>
      </trkpt>
      <trkpt lat="47.50222" lon="-1.31498">
        <ele>32</ele>
        <time>2018-03-11T09:07:02Z</time>
      </trkpt>
      <trkpt lat="47.50233" lon="-1.31495">
        <ele>32</ele>
        <time>2018-03-11T09:07:10Z</time>
      </trkpt>
      <trkpt lat="47.50243" lon="-1.31494">
        <ele>31</ele>
        <time>2018-03-11T09:07:18Z</time>
      </trkpt>
      <trkpt lat="47.50253" lon="-1.31493">
        <ele>30</ele>
        <time>2018-03-11T09:07:26Z</time>
      </trkpt>
      <trkpt lat="47.50256" lon="-1.31508">
        <ele>29</ele>
        <time>2018-03-11T09:07:40Z</time>
      </trkpt>
      <trkpt lat="47.50253" lon="-1.31525">
        <ele>28</ele>
        <time>2018-03-11T09:07:52Z</time>
      </trkpt>
      <trkpt lat="47.50249" lon="-1.31541">
        <ele>32</ele>
        <time>2018-03-11T09:08:04Z</time>
      </trkpt>
      <trkpt lat="47.50247" lon="-1.31559">
        <ele>32</ele>
        <time>2018-03-11T09:08:16Z</time>
      </trkpt>
      <trkpt lat="47.50242" lon="-1.31578">
        <ele>32</ele>
        <time>2018-03-11T09:08:28Z</time>
      </trkpt>
      <trkpt lat="47.50252" lon="-1.31647">
        <ele>28</ele>
        <time>2018-03-11T09:09:50Z</time>
      </trkpt>
      <trkpt lat="47.50236" lon="-1.31684">
        <ele>33</ele>
        <time>2018-03-11T09:10:20Z</time>
      </trkpt>
      <trkpt lat="47.50227" lon="-1.31702">
        <ele>34</ele>
        <time>2018-03-11T09:10:30Z</time>
      </trkpt>
      <trkpt lat="47.50219" lon="-1.31723">
        <ele>34</ele>
        <time>2018-03-11T09:10:42Z</time>
      </trkpt>
      <trkpt lat="47.50212" lon="-1.31736">
        <ele>35</ele>
        <time>2018-03-11T09:10:52Z</time>
      </trkpt>
      <trkpt lat="47.50206" lon="-1.31761">
        <ele>35</ele>
        <time>2018-03-11T09:11:06Z</time>
      </trkpt>
      <trkpt lat="47.50197" lon="-1.31793">
        <ele>35</ele>
        <time>2018-03-11T09:11:27Z</time>
      </trkpt>
      <trkpt lat="47.50191" lon="-1.31815">
        <ele>36</ele>
        <time>2018-03-11T09:11:42Z</time>
      </trkpt>
      <trkpt lat="47.50183" lon="-1.31839">
        <ele>36</ele>
        <time>2018-03-11T09:11:55Z</time>
      </trkpt>
      <trkpt lat="47.50179" lon="-1.31875">
        <ele>33</ele>
        <time>2018-03-11T09:12:14Z</time>
      </trkpt>
      <trkpt lat="47.50182" lon="-1.31896">
        <ele>33</ele>
      </trkpt>
      <trkpt lat="47.50185" lon="-1.31921">
        <ele>32</ele>
      </trkpt>
      <trkpt lat="47.50189" lon="-1.31937">
        <ele>30</ele>
      </trkpt>
      <trkpt lat="47.50193" lon="-1.31946">
        <ele>30</ele>
      </trkpt>
      <trkpt lat="47.50229" lon="-1.31966">
        <ele>27</ele>
        <time>2018-03-11T09:14:10Z</time>
      </trkpt>
      <trkpt lat="47.50258" lon="-1.31978">
        <ele>21</ele>
        <time>2018-03-11T09:14:49Z</time>
      </trkpt>
      <trkpt lat="47.50267" lon="-1.32003">
        <ele>21</ele>
        <time>2018-03-11T09:15:05Z</time>
      </trkpt>
      <trkpt lat="47.50272" lon="-1.32025">
        <ele>21</ele>
        <time>2018-03-11T09:15:23Z</time>
      </trkpt>
      <trkpt lat="47.50282" lon="-1.32036">
        <ele>21</ele>
        <time>2018-03-11T09:15:36Z</time>
      </trkpt>
      <trkpt lat="47.50296" lon="-1.32044">
        <ele>21</ele>
        <time>2018-03-11T09:15:49Z</time>
      </trkpt>
      <trkpt lat="47.50307" lon="-1.32052">
        <ele>21</ele>
        <time>2018-03-11T09:15:59Z</time>
      </trkpt>
      <trkpt lat="47.50322" lon="-1.32062">
        <ele>22</ele>
        <time>2018-03-11T09:16:11Z</time>
      </trkpt>
      <trkpt lat="47.50334" lon="-1.32069">
        <ele>23</ele>
        <time>2018-03-11T09:16:21Z</time>
      </trkpt>
      <trkpt lat="47.50345" lon="-1.32078">
        <ele>23</ele>
        <time>2018-03-11T09:16:32Z</time>
      </trkpt>
      <trkpt lat="47.50359" lon="-1.32088">
        <ele>23</ele>
        <time>2018-03-11T09:16:43Z</time>
      </trkpt>
      <trkpt lat="47.50373" lon="-1.32098">
        <ele>24</ele>
        <time>2018-03-11T09:16:53Z</time>
      </trkpt>
      <trkpt lat="47.50384" lon="-1.32105">
        <ele>24</ele>
        <time>2018-03-11T09:17:03Z</time>
      </trkpt>
      <trkpt lat="47.50395" lon="-1.32111">
        <ele>25</ele>
        <time>2018-03-11T09:17:12Z</time>
      </trkpt>
      <trkpt lat="47.50404" lon="-1.32118">
        <ele>25</ele>
        <time>2018-03-11T09:17:20Z</time>
      </trkpt>
      <trkpt lat="47.50414" lon="-1.32126">
        <ele>25</ele>
        <time>2018-03-11T09:17:29Z</time>
      </trkpt>
      <trkpt lat="47.50427" lon="-1.32135">
        <ele>28</ele>
        <time>2018-03-11T09:17:39Z</time>
      </trkpt>
      <trkpt lat="47.50436" lon="-1.32141">
        <ele>28</ele>
        <time>2018-03-11T09:17:47Z</time>
      </trkpt>
      <trkpt lat="47.50446" lon="-1.32148">
        <ele>29</ele>
        <time>2018-03-11T09:17:56Z</time>
      </trkpt>
      <trkpt lat="47.50456" lon="-1.32155">
        <ele>29</ele>
        <time>2018-03-11T09:18:04Z</time>
      </trkpt>
      <trkpt lat="47.50465" lon="-1.32161">
        <ele>29</ele>
        <time>2018-03-11T09:18:11Z</time>
      </trkpt>
      <trkpt lat="47.50475" lon="-1.32167">
        <ele>30</ele>
        <time>2018-03-11T09:18:18Z</time>
      </trkpt>
      <trkpt lat="47.50484" lon="-1.32175">
        <ele>30</ele>
        <time>2018-03-11T09:18:26Z</time>
      </trkpt>
      <trkpt lat="47.50494" lon="-1.32182">
        <ele>30</ele>
        <time>2018-03-11T09:18:34Z</time>
      </trkpt>
      <trkpt lat="47.50504" lon="-1.32188">
        <ele>33</ele>
        <time>2018-03-11T09:18:43Z</time>
      </trkpt>
      <trkpt lat="47.50514" lon="-1.32194">
        <ele>33</ele>
        <time>2018-03-11T09:18:51Z</time>
      </trkpt>
      <trkpt lat="47.50523" lon="-1.32199">
        <ele>34</ele>
        <time>2018-03-11T09:18:59Z</time>
      </trkpt>
      <trkpt lat="47.50533" lon="-1.32201">
        <ele>34</ele>
        <time>2018-03-11T09:19:08Z</time>
      </trkpt>
      <trkpt lat="47.50543" lon="-1.322">
        <ele>34</ele>
        <time>2018-03-11T09:19:17Z</time>
      </trkpt>
      <trkpt lat="47.50553" lon="-1.32198">
        <ele>34</ele>
        <time>2018-03-11T09:19:27Z</time>
      </trkpt>
      <trkpt lat="47.50566" lon="-1.32188">
        <ele>35</ele>
        <time>2018-03-11T09:19:39Z</time>
      </trkpt>
      <trkpt lat="47.50578" lon="-1.32176">
        <ele>35</ele>
        <time>2018-03-11T09:19:50Z</time>
      </trkpt>
      <trkpt lat="47.5059" lon="-1.32166">
        <ele>37</ele>
        <time>2018-03-11T09:20:02Z</time>
      </trkpt>
      <trkpt lat="47.50602" lon="-1.3215">
        <ele>38</ele>
        <time>2018-03-11T09:20:16Z</time>
      </trkpt>
      <trkpt lat="47.50618" lon="-1.32137">
        <ele>38</ele>
        <time>2018-03-11T09:20:27Z</time>
      </trkpt>
      <trkpt lat="47.5063" lon="-1.32125">
        <ele>38</ele>
        <time>2018-03-11T09:20:37Z</time>
      </trkpt>
      <trkpt lat="47.5064" lon="-1.32112">
        <ele>38</ele>
        <time>2018-03-11T09:20:46Z</time>
      </trkpt>
      <trkpt lat="47.50648" lon="-1.321">
        <ele>38</ele>
        <time>2018-03-11T09:20:55Z</time>
      </trkpt>
      <trkpt lat="47.50656" lon="-1.32089">
        <ele>38</ele>
        <time>2018-03-11T09:21:05Z</time>
      </trkpt>
      <trkpt lat="47.50664" lon="-1.32081">
        <ele>39</ele>
        <time>2018-03-11T09:21:15Z</time>
      </trkpt>
      <trkpt lat="47.50678" lon="-1.32071">
        <ele>40</ele>
        <time>2018-03-11T09:21:45Z</time>
      </trkpt>
      <trkpt lat="47.50668" lon="-1.3206">
        <ele>40</ele>
        <time>2018-03-11T09:22:01Z</time>
      </trkpt>
      <trkpt lat="47.50669" lon="-1.32042">
        <ele>41</ele>
        <time>2018-03-11T09:22:13Z</time>
      </trkpt>
      <trkpt lat="47.50672" lon="-1.32027">
        <ele>42</ele>
        <time>2018-03-11T09:22:24Z</time>
      </trkpt>
      <trkpt lat="47.50674" lon="-1.3201">
        <ele>43</ele>
        <time>2018-03-11T09:22:36Z</time>
      </trkpt>
      <trkpt lat="47.50676" lon="-1.31993">
        <ele>45</ele>
        <time>2018-03-11T09:22:48Z</time>
      </trkpt>
      <trkpt lat="47.50679" lon="-1.31975">
        <ele>45</ele>
        <time>2018-03-11T09:22:58Z</time>
      </trkpt>
      <trkpt lat="47.50681" lon="-1.31956">
        <ele>46</ele>
        <time>2018-03-11T09:23:11Z</time>
      </trkpt>
      <trkpt lat="47.50682" lon="-1.31937">
        <ele>47</ele>
        <time>2018-03-11T09:23:25Z</time>
      </trkpt>
      <trkpt lat="47.50681" lon="-1.31913">
        <ele>49</ele>
        <time>2018-03-11T09:23:40Z</time>
      </trkpt>
      <trkpt lat="47.50683" lon="-1.31896">
        <ele>49</ele>
        <time>2018-03-11T09:23:52Z</time>
      </trkpt>
      <trkpt lat="47.50686" lon="-1.31879">
        <ele>50</ele>
        <time>2018-03-11T09:24:02Z</time>
      </trkpt>
      <trkpt lat="47.50689" lon="-1.31863">
        <ele>50</ele>
        <time>2018-03-11T09:24:13Z</time>
      </trkpt>
      <trkpt lat="47.50688" lon="-1.31845">
        <ele>50</ele>
        <time>2018-03-11T09:24:25Z</time>
      </trkpt>
      <trkpt lat="47.50684" lon="-1.31827">
        <ele>52</ele>
        <time>2018-03-11T09:24:36Z</time>
      </trkpt>
      <trkpt lat="47.50682" lon="-1.31812">
        <ele>52</ele>
        <time>2018-03-11T09:25:07Z</time>
      </trkpt>
      <trkpt lat="47.50687" lon="-1.31796">
        <ele>52</ele>
        <time>2018-03-11T09:25:17Z</time>
      </trkpt>
      <trkpt lat="47.5069" lon="-1.31781">
        <ele>52</ele>
        <time>2018-03-11T09:25:26Z</time>
      </trkpt>
      <trkpt lat="47.50694" lon="-1.31766">
        <ele>52</ele>
        <time>2018-03-11T09:25:36Z</time>
      </trkpt>
      <trkpt lat="47.50698" lon="-1.31753">
        <ele>52</ele>
        <time>2018-03-11T09:25:44Z</time>
      </trkpt>
      <trkpt lat="47.50701" lon="-1.31739">
        <ele>52</ele>
        <time>2018-03-11T09:25:52Z</time>
      </trkpt>
      <trkpt lat="47.50703" lon="-1.31726">
        <ele>52</ele>
        <time>2018-03-11T09:26:00Z</time>
      </trkpt>
      <trkpt lat="47.50706" lon="-1.31712">
        <ele>52</ele>
        <time>2018-03-11T09:26:08Z</time>
      </trkpt>
      <trkpt lat="47.50709" lon="-1.31698">
        <ele>53</ele>
        <time>2018-03-11T09:26:16Z</time>
      </trkpt>
      <trkpt lat="47.50711" lon="-1.31683">
        <ele>53</ele>
        <time>2018-03-11T09:26:25Z</time>
      </trkpt>
      <trkpt lat="47.50714" lon="-1.31669">
        <ele>53</ele>
        <time>2018-03-11T09:26:34Z</time>
      </trkpt>
      <trkpt lat="47.50716" lon="-1.31652">
        <ele>52</ele>
        <time>2018-03-11T09:26:45Z</time>
      </trkpt>
      <trkpt lat="47.50718" lon="-1.31638">
        <ele>52</ele>
        <time>2018-03-11T09:26:57Z</time>
      </trkpt>
      <trkpt lat="47.50714" lon="-1.31627">
        <ele>52</ele>
        <time>2018-03-11T09:27:08Z</time>
      </trkpt>
      <trkpt lat="47.50705" lon="-1.31627">
        <ele>52</ele>
        <time>2018-03-11T09:27:16Z</time>
      </trkpt>
      <trkpt lat="47.50695" lon="-1.31625">
        <ele>52</ele>
        <time>2018-03-11T09:27:24Z</time>
      </trkpt>
      <trkpt lat="47.50684" lon="-1.31621">
        <ele>52</ele>
        <time>2018-03-11T09:27:33Z</time>
      </trkpt>
      <trkpt lat="47.50673" lon="-1.31618">
        <ele>52</ele>
        <time>2018-03-11T09:27:42Z</time>
      </trkpt>
      <trkpt lat="47.50664" lon="-1.3161">
        <ele>50</ele>
        <time>2018-03-11T09:27:52Z</time>
      </trkpt>
      <trkpt lat="47.50666" lon="-1.31593">
        <ele>51</ele>
        <time>2018-03-11T09:28:00Z</time>
      </trkpt>
      <trkpt lat="47.50669" lon="-1.31578">
        <ele>52</ele>
        <time>2018-03-11T09:28:08Z</time>
      </trkpt>
      <trkpt lat="47.50669" lon="-1.31563">
        <ele>51</ele>
        <time>2018-03-11T09:28:17Z</time>
      </trkpt>
      <trkpt lat="47.5067" lon="-1.31547">
        <ele>51</ele>
        <time>2018-03-11T09:28:27Z</time>
      </trkpt>
      <trkpt lat="47.50673" lon="-1.3153">
        <ele>50</ele>
        <time>2018-03-11T09:28:37Z</time>
      </trkpt>
      <trkpt lat="47.50677" lon="-1.31514">
        <ele>50</ele>
        <time>2018-03-11T09:28:46Z</time>
      </trkpt>
      <trkpt lat="47.50681" lon="-1.31496">
        <ele>49</ele>
        <time>2018-03-11T09:28:57Z</time>
      </trkpt>
      <trkpt lat="47.50685" lon="-1.31467">
        <ele>47</ele>
        <time>2018-03-11T09:29:17Z</time>
      </trkpt>
      <trkpt lat="47.50679" lon="-1.31421">
        <ele>45</ele>
        <time>2018-03-11T09:30:22Z</time>
      </trkpt>
      <trkpt lat="47.50684" lon="-1.3139">
        <ele>42</ele>
        <time>2018-03-11T09:31:54Z</time>
      </trkpt>
      <trkpt lat="47.50689" lon="-1.31371">
        <ele>41</ele>
        <time>2018-03-11T09:32:07Z</time>
      </trkpt>
      <trkpt lat="47.50694" lon="-1.31355">
        <ele>40</ele>
        <time>2018-03-11T09:32:18Z</time>
      </trkpt>
      <trkpt lat="47.50698" lon="-1.31342">
        <ele>40</ele>
        <time>2018-03-11T09:32:28Z</time>
      </trkpt>
      <trkpt lat="47.50704" lon="-1.3133">
        <ele>37</ele>
        <time>2018-03-11T09:32:37Z</time>
      </trkpt>
      <trkpt lat="47.50712" lon="-1.31317">
        <ele>38</ele>
        <time>2018-03-11T09:32:47Z</time>
      </trkpt>
      <trkpt lat="47.50719" lon="-1.31304">
        <ele>38</ele>
        <time>2018-03-11T09:32:58Z</time>
      </trkpt>
      <trkpt lat="47.50727" lon="-1.31291">
        <ele>38</ele>
        <time>2018-03-11T09:33:07Z</time>
      </trkpt>
      <trkpt lat="47.50732" lon="-1.31278">
        <ele>38</ele>
        <time>2018-03-11T09:33:17Z</time>
      </trkpt>
      <trkpt lat="47.50739" lon="-1.31266">
        <ele>39</ele>
        <time>2018-03-11T09:33:27Z</time>
      </trkpt>
      <trkpt lat="47.50745" lon="-1.31252">
        <ele>41</ele>
        <time>2018-03-11T09:33:37Z</time>
      </trkpt>
      <trkpt lat="47.50758" lon="-1.31215">
        <ele>44</ele>
      </trkpt>
      <trkpt lat="47.50775" lon="-1.31197">
        <ele>44</ele>
      </trkpt>
      <trkpt lat="47.50785" lon="-1.31182">
        <ele>45</ele>
      </trkpt>
      <trkpt lat="47.50802" lon="-1.3116">
        <ele>45</ele>
        <time>2018-03-11T09:35:40Z</time>
      </trkpt>
      <trkpt lat="47.50809" lon="-1.31135">
        <ele>45</ele>
      </trkpt>
      <trkpt lat="47.50817" lon="-1.31115">
        <ele>46</ele>
      </trkpt>
      <trkpt lat="47.50821" lon="-1.31099">
        <ele>47</ele>
      </trkpt>
      <trkpt lat="47.50829" lon="-1.31074">
        <ele>47</ele>
        <time>2018-03-11T09:36:44Z</time>
      </trkpt>
      <trkpt lat="47.50831" lon="-1.31056">
        <ele>43</ele>
        <time>2018-03-11T09:36:57Z</time>
      </trkpt>
      <trkpt lat="47.50838" lon="-1.31031">
        <ele>45</ele>
        <time>2018-03-11T09:37:12Z</time>
      </trkpt>
      <trkpt lat="47.50852" lon="-1.31004">
        <ele>43</ele>
        <time>2018-03-11T09:37:32Z</time>
      </trkpt>
      <trkpt lat="47.50864" lon="-1.30986">
        <ele>39</ele>
        <time>2018-03-11T09:37:45Z</time>
      </trkpt>
      <trkpt lat="47.50874" lon="-1.30968">
        <ele>38</ele>
        <time>2018-03-11T09:37:56Z</time>
      </trkpt>
      <trkpt lat="47.50881" lon="-1.30946">
        <ele>38</ele>
        <time>2018-03-11T09:38:09Z</time>
      </trkpt>
      <trkpt lat="47.50889" lon="-1.30927">
        <ele>37</ele>
        <time>2018-03-11T09:38:20Z</time>
      </trkpt>
      <trkpt lat="47.50895" lon="-1.30908">
        <ele>34</ele>
        <time>2018-03-11T09:38:30Z</time>
      </trkpt>
      <trkpt lat="47.50902" lon="-1.30885">
        <ele>33</ele>
        <time>2018-03-11T09:38:45Z</time>
      </trkpt>
      <trkpt lat="47.50921" lon="-1.30888">
        <ele>35</ele>
        <time>2018-03-11T09:39:10Z</time>
      </trkpt>
      <trkpt lat="47.5094" lon="-1.30897">
        <ele>36</ele>
        <time>2018-03-11T09:39:38Z</time>
      </trkpt>
      <trkpt lat="47.5095" lon="-1.30886">
        <ele>35</ele>
        <time>2018-03-11T09:39:49Z</time>
      </trkpt>
      <trkpt lat="47.50955" lon="-1.30871">
        <ele>35</ele>
        <time>2018-03-11T09:39:58Z</time>
      </trkpt>
      <trkpt lat="47.5096" lon="-1.30856">
        <ele>35</ele>
        <time>2018-03-11T09:40:06Z</time>
      </trkpt>
      <trkpt lat="47.50964" lon="-1.30843">
        <ele>35</ele>
        <time>2018-03-11T09:40:13Z</time>
      </trkpt>
      <trkpt lat="47.50969" lon="-1.30829">
        <ele>32</ele>
        <time>2018-03-11T09:40:21Z</time>
      </trkpt>
      <trkpt lat="47.50972" lon="-1.30815">
        <ele>31</ele>
        <time>2018-03-11T09:40:29Z</time>
      </trkpt>
      <trkpt lat="47.50975" lon="-1.308">
        <ele>31</ele>
        <time>2018-03-11T09:40:38Z</time>
      </trkpt>
      <trkpt lat="47.50978" lon="-1.30786">
        <ele>31</ele>
        <time>2018-03-11T09:40:46Z</time>
      </trkpt>
      <trkpt lat="47.5098" lon="-1.3077">
        <ele>30</ele>
        <time>2018-03-11T09:40:54Z</time>
      </trkpt>
      <trkpt lat="47.50983" lon="-1.30755">
        <ele>30</ele>
        <time>2018-03-11T09:41:02Z</time>
      </trkpt>
      <trkpt lat="47.50987" lon="-1.3074">
        <ele>29</ele>
        <time>2018-03-11T09:41:10Z</time>
      </trkpt>
      <trkpt lat="47.50991" lon="-1.30725">
        <ele>28</ele>
        <time>2018-03-11T09:41:18Z</time>
      </trkpt>
      <trkpt lat="47.50995" lon="-1.3071">
        <ele>28</ele>
        <time>2018-03-11T09:41:26Z</time>
      </trkpt>
      <trkpt lat="47.50998" lon="-1.30695">
        <ele>28</ele>
        <time>2018-03-11T09:41:34Z</time>
      </trkpt>
      <trkpt lat="47.51001" lon="-1.3068">
        <ele>30</ele>
        <time>2018-03-11T09:41:43Z</time>
      </trkpt>
      <trkpt lat="47.51005" lon="-1.30665">
        <ele>29</ele>
        <time>2018-03-11T09:41:52Z</time>
      </trkpt>
      <trkpt lat="47.51011" lon="-1.30652">
        <ele>30</ele>
        <time>2018-03-11T09:42:00Z</time>
      </trkpt>
      <trkpt lat="47.51015" lon="-1.30637">
        <ele>30</ele>
        <time>2018-03-11T09:42:09Z</time>
      </trkpt>
      <trkpt lat="47.51022" lon="-1.30628">
        <ele>30</ele>
        <time>2018-03-11T09:42:16Z</time>
      </trkpt>
      <trkpt lat="47.5103" lon="-1.30621">
        <ele>30</ele>
        <time>2018-03-11T09:42:24Z</time>
      </trkpt>
      <trkpt lat="47.51039" lon="-1.30613">
        <ele>30</ele>
        <time>2018-03-11T09:42:32Z</time>
      </trkpt>
      <trkpt lat="47.51047" lon="-1.30606">
        <ele>30</ele>
        <time>2018-03-11T09:42:41Z</time>
      </trkpt>
      <trkpt lat="47.51057" lon="-1.306">
        <ele>31</ele>
        <time>2018-03-11T09:42:49Z</time>
      </trkpt>
      <trkpt lat="47.51066" lon="-1.30594">
        <ele>31</ele>
        <time>2018-03-11T09:42:57Z</time>
      </trkpt>
      <trkpt lat="47.51075" lon="-1.30588">
        <ele>31</ele>
        <time>2018-03-11T09:43:06Z</time>
      </trkpt>
      <trkpt lat="47.51084" lon="-1.30584">
        <ele>32</ele>
        <time>2018-03-11T09:43:14Z</time>
      </trkpt>
      <trkpt lat="47.51094" lon="-1.30579">
        <ele>32</ele>
        <time>2018-03-11T09:43:22Z</time>
      </trkpt>
      <trkpt lat="47.51104" lon="-1.30575">
        <ele>32</ele>
        <time>2018-03-11T09:43:31Z</time>
      </trkpt>
      <trkpt lat="47.51116" lon="-1.3057">
        <ele>32</ele>
        <time>2018-03-11T09:43:40Z</time>
      </trkpt>
      <trkpt lat="47.51125" lon="-1.3056">
        <ele>32</ele>
        <time>2018-03-11T09:43:50Z</time>
      </trkpt>
      <trkpt lat="47.51134" lon="-1.30556">
        <ele>32</ele>
        <time>2018-03-11T09:44:00Z</time>
      </trkpt>
      <trkpt lat="47.51145" lon="-1.3055">
        <ele>32</ele>
        <time>2018-03-11T09:44:10Z</time>
      </trkpt>
      <trkpt lat="47.51155" lon="-1.30543">
        <ele>32</ele>
        <time>2018-03-11T09:44:20Z</time>
      </trkpt>
      <trkpt lat="47.51167" lon="-1.30535">
        <ele>33</ele>
        <time>2018-03-11T09:44:29Z</time>
      </trkpt>
      <trkpt lat="47.51176" lon="-1.30526">
        <ele>33</ele>
        <time>2018-03-11T09:44:37Z</time>
      </trkpt>
      <trkpt lat="47.51187" lon="-1.30517">
        <ele>34</ele>
        <time>2018-03-11T09:44:47Z</time>
      </trkpt>
      <trkpt lat="47.51197" lon="-1.30509">
        <ele>34</ele>
        <time>2018-03-11T09:44:56Z</time>
      </trkpt>
      <trkpt lat="47.51206" lon="-1.30499">
        <ele>34</ele>
        <time>2018-03-11T09:45:04Z</time>
      </trkpt>
      <trkpt lat="47.51213" lon="-1.30486">
        <ele>34</ele>
        <time>2018-03-11T09:45:12Z</time>
      </trkpt>
      <trkpt lat="47.5122" lon="-1.30474">
        <ele>34</ele>
        <time>2018-03-11T09:45:20Z</time>
      </trkpt>
      <trkpt lat="47.51225" lon="-1.30459">
        <ele>34</ele>
        <time>2018-03-11T09:45:29Z</time>
      </trkpt>
      <trkpt lat="47.51232" lon="-1.30445">
        <ele>34</ele>
        <time>2018-03-11T09:45:38Z</time>
      </trkpt>
      <trkpt lat="47.51238" lon="-1.30433">
        <ele>35</ele>
        <time>2018-03-11T09:45:46Z</time>
      </trkpt>
      <trkpt lat="47.51244" lon="-1.30422">
        <ele>35</ele>
        <time>2018-03-11T09:45:55Z</time>
      </trkpt>
      <trkpt lat="47.5125" lon="-1.30407">
        <ele>35</ele>
        <time>2018-03-11T09:46:04Z</time>
      </trkpt>
      <trkpt lat="47.51259" lon="-1.30398">
        <ele>35</ele>
        <time>2018-03-11T09:46:14Z</time>
      </trkpt>
      <trkpt lat="47.51265" lon="-1.30388">
        <ele>35</ele>
        <time>2018-03-11T09:46:23Z</time>
      </trkpt>
      <trkpt lat="47.51262" lon="-1.30374">
        <ele>35</ele>
        <time>2018-03-11T09:46:32Z</time>
      </trkpt>
      <trkpt lat="47.51258" lon="-1.30359">
        <ele>35</ele>
        <time>2018-03-11T09:46:40Z</time>
      </trkpt>
      <trkpt lat="47.51258" lon="-1.30343">
        <ele>35</ele>
        <time>2018-03-11T09:46:48Z</time>
      </trkpt>
      <trkpt lat="47.51261" lon="-1.30327">
        <ele>34</ele>
        <time>2018-03-11T09:46:56Z</time>
      </trkpt>
      <trkpt lat="47.51261" lon="-1.30311">
        <ele>34</ele>
        <time>2018-03-11T09:47:04Z</time>
      </trkpt>
      <trkpt lat="47.51264" lon="-1.30295">
        <ele>34</ele>
        <time>2018-03-11T09:47:13Z</time>
      </trkpt>
      <trkpt lat="47.51267" lon="-1.30279">
        <ele>33</ele>
        <time>2018-03-11T09:47:22Z</time>
      </trkpt>
      <trkpt lat="47.51268" lon="-1.30262">
        <ele>33</ele>
        <time>2018-03-11T09:47:31Z</time>
      </trkpt>
      <trkpt lat="47.51272" lon="-1.30245">
        <ele>33</ele>
        <time>2018-03-11T09:47:40Z</time>
      </trkpt>
      <trkpt lat="47.51277" lon="-1.30228">
        <ele>33</ele>
        <time>2018-03-11T09:47:50Z</time>
      </trkpt>
      <trkpt lat="47.5128" lon="-1.30211">
        <ele>33</ele>
        <time>2018-03-11T09:47:58Z</time>
      </trkpt>
      <trkpt lat="47.51283" lon="-1.3019">
        <ele>33</ele>
        <time>2018-03-11T09:48:07Z</time>
      </trkpt>
      <trkpt lat="47.51285" lon="-1.30174">
        <ele>33</ele>
        <time>2018-03-11T09:48:17Z</time>
      </trkpt>
      <trkpt lat="47.51286" lon="-1.30157">
        <ele>33</ele>
        <time>2018-03-11T09:48:27Z</time>
      </trkpt>
      <trkpt lat="47.51288" lon="-1.30135">
        <ele>33</ele>
        <time>2018-03-11T09:48:41Z</time>
      </trkpt>
      <trkpt lat="47.5129" lon="-1.30109">
        <ele>33</ele>
        <time>2018-03-11T09:48:56Z</time>
      </trkpt>
      <trkpt lat="47.51291" lon="-1.3008">
        <ele>32</ele>
        <time>2018-03-11T09:49:15Z</time>
      </trkpt>
      <trkpt lat="47.51291" lon="-1.30064">
        <ele>32</ele>
        <time>2018-03-11T09:49:23Z</time>
      </trkpt>
      <trkpt lat="47.5129" lon="-1.30049">
        <ele>32</ele>
        <time>2018-03-11T09:49:30Z</time>
      </trkpt>
      <trkpt lat="47.51289" lon="-1.30031">
        <ele>32</ele>
        <time>2018-03-11T09:49:38Z</time>
      </trkpt>
      <trkpt lat="47.51288" lon="-1.30016">
        <ele>32</ele>
        <time>2018-03-11T09:49:46Z</time>
      </trkpt>
      <trkpt lat="47.51287" lon="-1.3">
        <ele>30</ele>
        <time>2018-03-11T09:49:54Z</time>
      </trkpt>
      <trkpt lat="47.51287" lon="-1.29982">
        <ele>30</ele>
        <time>2018-03-11T09:50:03Z</time>
      </trkpt>
      <trkpt lat="47.51287" lon="-1.29966">
        <ele>30</ele>
        <time>2018-03-11T09:50:12Z</time>
      </trkpt>
      <trkpt lat="47.51286" lon="-1.29949">
        <ele>29</ele>
        <time>2018-03-11T09:50:22Z</time>
      </trkpt>
      <trkpt lat="47.51285" lon="-1.29932">
        <ele>29</ele>
        <time>2018-03-11T09:50:34Z</time>
      </trkpt>
      <trkpt lat="47.51285" lon="-1.29916">
        <ele>27</ele>
        <time>2018-03-11T09:50:44Z</time>
      </trkpt>
      <trkpt lat="47.51288" lon="-1.299">
        <ele>27</ele>
        <time>2018-03-11T09:50:54Z</time>
      </trkpt>
      <trkpt lat="47.51292" lon="-1.29888">
        <ele>27</ele>
        <time>2018-03-11T09:51:03Z</time>
      </trkpt>
      <trkpt lat="47.51294" lon="-1.29872">
        <ele>27</ele>
        <time>2018-03-11T09:51:13Z</time>
      </trkpt>
      <trkpt lat="47.51296" lon="-1.29856">
        <ele>27</ele>
        <time>2018-03-11T09:51:27Z</time>
      </trkpt>
      <trkpt lat="47.51301" lon="-1.29843">
        <ele>27</ele>
        <time>2018-03-11T09:51:35Z</time>
      </trkpt>
      <trkpt lat="47.51305" lon="-1.29829">
        <ele>25</ele>
        <time>2018-03-11T09:51:43Z</time>
      </trkpt>
      <trkpt lat="47.51311" lon="-1.29816">
        <ele>25</ele>
        <time>2018-03-11T09:51:51Z</time>
      </trkpt>
      <trkpt lat="47.51315" lon="-1.29801">
        <ele>25</ele>
        <time>2018-03-11T09:52:00Z</time>
      </trkpt>
      <trkpt lat="47.51319" lon="-1.29788">
        <ele>25</ele>
        <time>2018-03-11T09:52:07Z</time>
      </trkpt>
      <trkpt lat="47.51325" lon="-1.29777">
        <ele>25</ele>
        <time>2018-03-11T09:52:15Z</time>
      </trkpt>
      <trkpt lat="47.51332" lon="-1.29765">
        <ele>24</ele>
        <time>2018-03-11T09:52:23Z</time>
      </trkpt>
      <trkpt lat="47.51339" lon="-1.29754">
        <ele>24</ele>
        <time>2018-03-11T09:52:31Z</time>
      </trkpt>
      <trkpt lat="47.51347" lon="-1.29744">
        <ele>24</ele>
        <time>2018-03-11T09:52:40Z</time>
      </trkpt>
      <trkpt lat="47.51356" lon="-1.2973">
        <ele>23</ele>
        <time>2018-03-11T09:52:49Z</time>
      </trkpt>
      <trkpt lat="47.51365" lon="-1.29716">
        <ele>23</ele>
        <time>2018-03-11T09:52:58Z</time>
      </trkpt>
      <trkpt lat="47.51373" lon="-1.297">
        <ele>23</ele>
        <time>2018-03-11T09:53:08Z</time>
      </trkpt>
      <trkpt lat="47.51379" lon="-1.29681">
        <ele>23</ele>
        <time>2018-03-11T09:53:19Z</time>
      </trkpt>
      <trkpt lat="47.51383" lon="-1.29663">
        <ele>23</ele>
        <time>2018-03-11T09:53:30Z</time>
      </trkpt>
      <trkpt lat="47.51389" lon="-1.29646">
        <ele>23</ele>
        <time>2018-03-11T09:53:39Z</time>
      </trkpt>
      <trkpt lat="47.51394" lon="-1.2963">
        <ele>23</ele>
        <time>2018-03-11T09:53:49Z</time>
      </trkpt>
      <trkpt lat="47.514" lon="-1.29607">
        <ele>23</ele>
        <time>2018-03-11T09:54:03Z</time>
      </trkpt>
      <trkpt lat="47.51412" lon="-1.29572">
        <ele>23</ele>
        <time>2018-03-11T09:54:22Z</time>
      </trkpt>
      <trkpt lat="47.51419" lon="-1.2955">
        <ele>25</ele>
      </trkpt>
      <trkpt lat="47.51428" lon="-1.2952">
        <ele>25</ele>
        <time>2018-03-11T09:54:49Z</time>
      </trkpt>
      <trkpt lat="47.51433" lon="-1.29492">
        <ele>25</ele>
        <time>2018-03-11T09:55:04Z</time>
      </trkpt>
      <trkpt lat="47.51434" lon="-1.29465">
        <ele>24</ele>
        <time>2018-03-11T09:55:17Z</time>
      </trkpt>
      <trkpt lat="47.51461" lon="-1.29427">
        <ele>24</ele>
        <time>2018-03-11T10:04:30Z</time>
      </trkpt>
      <trkpt lat="47.51471" lon="-1.29417">
        <ele>24</ele>
        <time>2018-03-11T10:04:41Z</time>
      </trkpt>
      <trkpt lat="47.51495" lon="-1.29393">
        <ele>24</ele>
        <time>2018-03-11T10:05:07Z</time>
      </trkpt>
      <trkpt lat="47.51513" lon="-1.29379">
        <ele>26</ele>
      </trkpt>
      <trkpt lat="47.51524" lon="-1.29374">
        <ele>27</ele>
      </trkpt>
      <trkpt lat="47.51539" lon="-1.29361">
        <ele>27</ele>
      </trkpt>
      <trkpt lat="47.51552" lon="-1.29355">
        <ele>28</ele>
      </trkpt>
      <trkpt lat="47.51568" lon="-1.29348">
        <ele>29</ele>
      </trkpt>
      <trkpt lat="47.51583" lon="-1.29342">
        <ele>30</ele>
      </trkpt>
      <trkpt lat="47.51597" lon="-1.29336">
        <ele>31</ele>
      </trkpt>
      <trkpt lat="47.51615" lon="-1.29333">
        <ele>32</ele>
        <time>2018-03-11T10:06:44Z</time>
      </trkpt>
      <trkpt lat="47.51636" lon="-1.29326">
        <ele>32</ele>
        <time>2018-03-11T10:07:04Z</time>
      </trkpt>
      <trkpt lat="47.51648" lon="-1.29329">
        <ele>32</ele>
        <time>2018-03-11T10:07:15Z</time>
      </trkpt>
      <trkpt lat="47.51659" lon="-1.29332">
        <ele>32</ele>
        <time>2018-03-11T10:07:25Z</time>
      </trkpt>
      <trkpt lat="47.51675" lon="-1.29334">
        <ele>33</ele>
        <time>2018-03-11T10:07:35Z</time>
      </trkpt>
      <trkpt lat="47.51694" lon="-1.2934">
        <ele>34</ele>
      </trkpt>
      <trkpt lat="47.51717" lon="-1.29345">
        <ele>35</ele>
        <time>2018-03-11T10:08:11Z</time>
      </trkpt>
      <trkpt lat="47.51731" lon="-1.29345">
        <ele>35</ele>
        <time>2018-03-11T10:08:24Z</time>
      </trkpt>
      <trkpt lat="47.51754" lon="-1.29359">
        <ele>39</ele>
        <time>2018-03-11T10:09:29Z</time>
      </trkpt>
      <trkpt lat="47.51766" lon="-1.29347">
        <ele>39</ele>
        <time>2018-03-11T10:10:35Z</time>
      </trkpt>
      <trkpt lat="47.51786" lon="-1.29346">
        <ele>39</ele>
        <time>2018-03-11T10:11:05Z</time>
      </trkpt>
      <trkpt lat="47.51795" lon="-1.2933">
        <ele>39</ele>
        <time>2018-03-11T10:11:33Z</time>
      </trkpt>
      <trkpt lat="47.51797" lon="-1.29316">
        <ele>39</ele>
        <time>2018-03-11T10:11:41Z</time>
      </trkpt>
      <trkpt lat="47.51802" lon="-1.29302">
        <ele>39</ele>
        <time>2018-03-11T10:11:50Z</time>
      </trkpt>
      <trkpt lat="47.51807" lon="-1.2929">
        <ele>40</ele>
        <time>2018-03-11T10:11:58Z</time>
      </trkpt>
      <trkpt lat="47.51822" lon="-1.29275">
        <ele>40</ele>
        <time>2018-03-11T10:12:30Z</time>
      </trkpt>
      <trkpt lat="47.51846" lon="-1.29286">
        <ele>41</ele>
        <time>2018-03-11T10:12:49Z</time>
      </trkpt>
      <trkpt lat="47.51858" lon="-1.29291">
        <ele>41</ele>
        <time>2018-03-11T10:12:57Z</time>
      </trkpt>
      <trkpt lat="47.51871" lon="-1.29296">
        <ele>41</ele>
        <time>2018-03-11T10:13:06Z</time>
      </trkpt>
      <trkpt lat="47.51887" lon="-1.29303">
        <ele>41</ele>
        <time>2018-03-11T10:13:17Z</time>
      </trkpt>
      <trkpt lat="47.51899" lon="-1.29307">
        <ele>41</ele>
        <time>2018-03-11T10:13:25Z</time>
      </trkpt>
      <trkpt lat="47.5191" lon="-1.29313">
        <ele>41</ele>
        <time>2018-03-11T10:13:33Z</time>
      </trkpt>
      <trkpt lat="47.51927" lon="-1.29317">
        <ele>41</ele>
        <time>2018-03-11T10:13:43Z</time>
      </trkpt>
      <trkpt lat="47.51945" lon="-1.29322">
        <ele>40</ele>
        <time>2018-03-11T10:13:56Z</time>
      </trkpt>
      <trkpt lat="47.51957" lon="-1.29327">
        <ele>40</ele>
        <time>2018-03-11T10:14:04Z</time>
      </trkpt>
      <trkpt lat="47.51968" lon="-1.29332">
        <ele>40</ele>
        <time>2018-03-11T10:14:12Z</time>
      </trkpt>
      <trkpt lat="47.51979" lon="-1.29337">
        <ele>41</ele>
        <time>2018-03-11T10:14:20Z</time>
      </trkpt>
      <trkpt lat="47.51991" lon="-1.29342">
        <ele>41</ele>
        <time>2018-03-11T10:14:29Z</time>
      </trkpt>
      <trkpt lat="47.52005" lon="-1.29347">
        <ele>40</ele>
        <time>2018-03-11T10:14:37Z</time>
      </trkpt>
      <trkpt lat="47.52017" lon="-1.29352">
        <ele>41</ele>
        <time>2018-03-11T10:14:46Z</time>
      </trkpt>
      <trkpt lat="47.52026" lon="-1.29362">
        <ele>41</ele>
        <time>2018-03-11T10:14:55Z</time>
      </trkpt>
      <trkpt lat="47.52032" lon="-1.29375">
        <ele>41</ele>
        <time>2018-03-11T10:15:03Z</time>
      </trkpt>
      <trkpt lat="47.52037" lon="-1.29389">
        <ele>41</ele>
        <time>2018-03-11T10:15:11Z</time>
      </trkpt>
      <trkpt lat="47.52042" lon="-1.29404">
        <ele>41</ele>
        <time>2018-03-11T10:15:19Z</time>
      </trkpt>
      <trkpt lat="47.52046" lon="-1.2942">
        <ele>42</ele>
        <time>2018-03-11T10:15:28Z</time>
      </trkpt>
      <trkpt lat="47.52051" lon="-1.29434">
        <ele>42</ele>
        <time>2018-03-11T10:15:36Z</time>
      </trkpt>
      <trkpt lat="47.52058" lon="-1.29446">
        <ele>42</ele>
        <time>2018-03-11T10:15:43Z</time>
      </trkpt>
      <trkpt lat="47.52063" lon="-1.2946">
        <ele>43</ele>
        <time>2018-03-11T10:15:51Z</time>
      </trkpt>
      <trkpt lat="47.52069" lon="-1.29475">
        <ele>43</ele>
        <time>2018-03-11T10:15:59Z</time>
      </trkpt>
      <trkpt lat="47.52073" lon="-1.2949">
        <ele>43</ele>
        <time>2018-03-11T10:16:07Z</time>
      </trkpt>
      <trkpt lat="47.52074" lon="-1.29512">
        <ele>44</ele>
        <time>2018-03-11T10:16:34Z</time>
      </trkpt>
      <trkpt lat="47.52081" lon="-1.29527">
        <ele>45</ele>
        <time>2018-03-11T10:16:44Z</time>
      </trkpt>
      <trkpt lat="47.52087" lon="-1.29541">
        <ele>43</ele>
        <time>2018-03-11T10:16:52Z</time>
      </trkpt>
      <trkpt lat="47.52091" lon="-1.29555">
        <ele>43</ele>
        <time>2018-03-11T10:17:00Z</time>
      </trkpt>
      <trkpt lat="47.52095" lon="-1.29569">
        <ele>44</ele>
        <time>2018-03-11T10:17:08Z</time>
      </trkpt>
      <trkpt lat="47.52099" lon="-1.29584">
        <ele>45</ele>
        <time>2018-03-11T10:17:16Z</time>
      </trkpt>
      <trkpt lat="47.52103" lon="-1.29599">
        <ele>45</ele>
        <time>2018-03-11T10:17:25Z</time>
      </trkpt>
      <trkpt lat="47.52108" lon="-1.29615">
        <ele>45</ele>
        <time>2018-03-11T10:17:36Z</time>
      </trkpt>
      <trkpt lat="47.52114" lon="-1.29631">
        <ele>45</ele>
        <time>2018-03-11T10:17:45Z</time>
      </trkpt>
      <trkpt lat="47.52118" lon="-1.29648">
        <ele>45</ele>
        <time>2018-03-11T10:17:54Z</time>
      </trkpt>
      <trkpt lat="47.52122" lon="-1.29664">
        <ele>45</ele>
        <time>2018-03-11T10:18:03Z</time>
      </trkpt>
      <trkpt lat="47.52127" lon="-1.29681">
        <ele>47</ele>
        <time>2018-03-11T10:18:13Z</time>
      </trkpt>
      <trkpt lat="47.52133" lon="-1.29697">
        <ele>47</ele>
        <time>2018-03-11T10:18:22Z</time>
      </trkpt>
      <trkpt lat="47.52138" lon="-1.29713">
        <ele>47</ele>
        <time>2018-03-11T10:18:31Z</time>
      </trkpt>
      <trkpt lat="47.52144" lon="-1.29729">
        <ele>47</ele>
        <time>2018-03-11T10:18:40Z</time>
      </trkpt>
      <trkpt lat="47.52151" lon="-1.29743">
        <ele>48</ele>
        <time>2018-03-11T10:18:49Z</time>
      </trkpt>
      <trkpt lat="47.5216" lon="-1.29754">
        <ele>49</ele>
        <time>2018-03-11T10:18:57Z</time>
      </trkpt>
      <trkpt lat="47.52169" lon="-1.29763">
        <ele>48</ele>
        <time>2018-03-11T10:19:05Z</time>
      </trkpt>
      <trkpt lat="47.52177" lon="-1.29772">
        <ele>48</ele>
        <time>2018-03-11T10:19:13Z</time>
      </trkpt>
      <trkpt lat="47.52186" lon="-1.2978">
        <ele>48</ele>
        <time>2018-03-11T10:19:21Z</time>
      </trkpt>
      <trkpt lat="47.52196" lon="-1.29789">
        <ele>48</ele>
        <time>2018-03-11T10:19:29Z</time>
      </trkpt>
      <trkpt lat="47.52205" lon="-1.29797">
        <ele>48</ele>
        <time>2018-03-11T10:19:36Z</time>
      </trkpt>
      <trkpt lat="47.52214" lon="-1.29805">
        <ele>48</ele>
        <time>2018-03-11T10:19:44Z</time>
      </trkpt>
      <trkpt lat="47.52223" lon="-1.29814">
        <ele>48</ele>
        <time>2018-03-11T10:19:52Z</time>
      </trkpt>
      <trkpt lat="47.52233" lon="-1.29824">
        <ele>48</ele>
        <time>2018-03-11T10:20:00Z</time>
      </trkpt>
      <trkpt lat="47.52243" lon="-1.29831">
        <ele>48</ele>
        <time>2018-03-11T10:20:07Z</time>
      </trkpt>
      <trkpt lat="47.52251" lon="-1.29839">
        <ele>48</ele>
        <time>2018-03-11T10:20:14Z</time>
      </trkpt>
      <trkpt lat="47.52261" lon="-1.29848">
        <ele>49</ele>
        <time>2018-03-11T10:20:22Z</time>
      </trkpt>
      <trkpt lat="47.5227" lon="-1.29856">
        <ele>49</ele>
        <time>2018-03-11T10:20:30Z</time>
      </trkpt>
      <trkpt lat="47.52279" lon="-1.29865">
        <ele>49</ele>
        <time>2018-03-11T10:20:38Z</time>
      </trkpt>
      <trkpt lat="47.52288" lon="-1.29875">
        <ele>49</ele>
        <time>2018-03-11T10:20:47Z</time>
      </trkpt>
      <trkpt lat="47.52298" lon="-1.29883">
        <ele>49</ele>
        <time>2018-03-11T10:20:55Z</time>
      </trkpt>
      <trkpt lat="47.52307" lon="-1.29893">
        <ele>49</ele>
        <time>2018-03-11T10:21:04Z</time>
      </trkpt>
      <trkpt lat="47.52317" lon="-1.29902">
        <ele>49</ele>
        <time>2018-03-11T10:21:13Z</time>
      </trkpt>
      <trkpt lat="47.52327" lon="-1.2991">
        <ele>50</ele>
        <time>2018-03-11T10:21:21Z</time>
      </trkpt>
      <trkpt lat="47.52337" lon="-1.2992">
        <ele>50</ele>
        <time>2018-03-11T10:21:30Z</time>
      </trkpt>
      <trkpt lat="47.52346" lon="-1.29928">
        <ele>50</ele>
        <time>2018-03-11T10:21:39Z</time>
      </trkpt>
      <trkpt lat="47.52357" lon="-1.29938">
        <ele>50</ele>
        <time>2018-03-11T10:21:49Z</time>
      </trkpt>
      <trkpt lat="47.52364" lon="-1.29953">
        <ele>50</ele>
        <time>2018-03-11T10:22:04Z</time>
      </trkpt>
      <trkpt lat="47.52358" lon="-1.29967">
        <ele>50</ele>
        <time>2018-03-11T10:22:16Z</time>
      </trkpt>
      <trkpt lat="47.52352" lon="-1.29981">
        <ele>50</ele>
        <time>2018-03-11T10:22:26Z</time>
      </trkpt>
      <trkpt lat="47.52345" lon="-1.29995">
        <ele>51</ele>
        <time>2018-03-11T10:22:35Z</time>
      </trkpt>
      <trkpt lat="47.52338" lon="-1.30009">
        <ele>51</ele>
        <time>2018-03-11T10:22:45Z</time>
      </trkpt>
      <trkpt lat="47.52332" lon="-1.30021">
        <ele>51</ele>
        <time>2018-03-11T10:22:53Z</time>
      </trkpt>
      <trkpt lat="47.52325" lon="-1.30032">
        <ele>51</ele>
        <time>2018-03-11T10:23:01Z</time>
      </trkpt>
      <trkpt lat="47.52317" lon="-1.30041">
        <ele>51</ele>
        <time>2018-03-11T10:23:10Z</time>
      </trkpt>
      <trkpt lat="47.52309" lon="-1.30052">
        <ele>51</ele>
        <time>2018-03-11T10:23:18Z</time>
      </trkpt>
      <trkpt lat="47.52301" lon="-1.30063">
        <ele>51</ele>
        <time>2018-03-11T10:23:27Z</time>
      </trkpt>
      <trkpt lat="47.52291" lon="-1.30071">
        <ele>52</ele>
        <time>2018-03-11T10:23:36Z</time>
      </trkpt>
      <trkpt lat="47.5228" lon="-1.30078">
        <ele>52</ele>
        <time>2018-03-11T10:23:45Z</time>
      </trkpt>
      <trkpt lat="47.5227" lon="-1.30075">
        <ele>52</ele>
        <time>2018-03-11T10:23:54Z</time>
      </trkpt>
      <trkpt lat="47.52258" lon="-1.30074">
        <ele>52</ele>
        <time>2018-03-11T10:24:08Z</time>
      </trkpt>
      <trkpt lat="47.52253" lon="-1.3009">
        <ele>52</ele>
        <time>2018-03-11T10:24:19Z</time>
      </trkpt>
      <trkpt lat="47.52259" lon="-1.30102">
        <ele>52</ele>
        <time>2018-03-11T10:24:28Z</time>
      </trkpt>
      <trkpt lat="47.52268" lon="-1.30111">
        <ele>52</ele>
        <time>2018-03-11T10:24:37Z</time>
      </trkpt>
      <trkpt lat="47.52277" lon="-1.30121">
        <ele>52</ele>
        <time>2018-03-11T10:24:47Z</time>
      </trkpt>
      <trkpt lat="47.52286" lon="-1.30131">
        <ele>52</ele>
        <time>2018-03-11T10:24:57Z</time>
      </trkpt>
      <trkpt lat="47.52297" lon="-1.3014">
        <ele>51</ele>
        <time>2018-03-11T10:25:06Z</time>
      </trkpt>
      <trkpt lat="47.52306" lon="-1.30152">
        <ele>51</ele>
        <time>2018-03-11T10:25:15Z</time>
      </trkpt>
      <trkpt lat="47.52315" lon="-1.3016">
        <ele>51</ele>
        <time>2018-03-11T10:25:24Z</time>
      </trkpt>
      <trkpt lat="47.52325" lon="-1.30169">
        <ele>51</ele>
        <time>2018-03-11T10:25:33Z</time>
      </trkpt>
      <trkpt lat="47.52334" lon="-1.30179">
        <ele>51</ele>
        <time>2018-03-11T10:25:41Z</time>
      </trkpt>
      <trkpt lat="47.5234" lon="-1.30191">
        <ele>51</ele>
        <time>2018-03-11T10:25:50Z</time>
      </trkpt>
      <trkpt lat="47.52348" lon="-1.30203">
        <ele>51</ele>
        <time>2018-03-11T10:25:58Z</time>
      </trkpt>
      <trkpt lat="47.52355" lon="-1.30213">
        <ele>51</ele>
        <time>2018-03-11T10:26:06Z</time>
      </trkpt>
      <trkpt lat="47.52362" lon="-1.30224">
        <ele>51</ele>
        <time>2018-03-11T10:26:15Z</time>
      </trkpt>
      <trkpt lat="47.5237" lon="-1.30235">
        <ele>51</ele>
        <time>2018-03-11T10:26:23Z</time>
      </trkpt>
      <trkpt lat="47.52378" lon="-1.30245">
        <ele>51</ele>
        <time>2018-03-11T10:26:31Z</time>
      </trkpt>
      <trkpt lat="47.52386" lon="-1.30255">
        <ele>50</ele>
        <time>2018-03-11T10:26:40Z</time>
      </trkpt>
      <trkpt lat="47.52395" lon="-1.30266">
        <ele>50</ele>
        <time>2018-03-11T10:26:49Z</time>
      </trkpt>
      <trkpt lat="47.52403" lon="-1.30275">
        <ele>50</ele>
        <time>2018-03-11T10:26:57Z</time>
      </trkpt>
      <trkpt lat="47.52413" lon="-1.30285">
        <ele>50</ele>
        <time>2018-03-11T10:27:05Z</time>
      </trkpt>
      <trkpt lat="47.52421" lon="-1.30294">
        <ele>48</ele>
        <time>2018-03-11T10:27:13Z</time>
      </trkpt>
      <trkpt lat="47.52429" lon="-1.30304">
        <ele>48</ele>
        <time>2018-03-11T10:27:22Z</time>
      </trkpt>
      <trkpt lat="47.52437" lon="-1.30316">
        <ele>48</ele>
        <time>2018-03-11T10:27:32Z</time>
      </trkpt>
      <trkpt lat="47.52445" lon="-1.30328">
        <ele>48</ele>
        <time>2018-03-11T10:27:42Z</time>
      </trkpt>
      <trkpt lat="47.52452" lon="-1.30338">
        <ele>47</ele>
        <time>2018-03-11T10:27:51Z</time>
      </trkpt>
      <trkpt lat="47.52461" lon="-1.30348">
        <ele>48</ele>
        <time>2018-03-11T10:27:59Z</time>
      </trkpt>
      <trkpt lat="47.5247" lon="-1.30359">
        <ele>48</ele>
        <time>2018-03-11T10:28:07Z</time>
      </trkpt>
      <trkpt lat="47.5248" lon="-1.3037">
        <ele>48</ele>
        <time>2018-03-11T10:28:15Z</time>
      </trkpt>
      <trkpt lat="47.52488" lon="-1.30381">
        <ele>48</ele>
        <time>2018-03-11T10:28:23Z</time>
      </trkpt>
      <trkpt lat="47.52497" lon="-1.30392">
        <ele>48</ele>
        <time>2018-03-11T10:28:31Z</time>
      </trkpt>
      <trkpt lat="47.52505" lon="-1.30402">
        <ele>48</ele>
        <time>2018-03-11T10:28:39Z</time>
      </trkpt>
      <trkpt lat="47.52514" lon="-1.30414">
        <ele>48</ele>
        <time>2018-03-11T10:28:47Z</time>
      </trkpt>
      <trkpt lat="47.52522" lon="-1.30425">
        <ele>48</ele>
        <time>2018-03-11T10:28:55Z</time>
      </trkpt>
      <trkpt lat="47.5253" lon="-1.30435">
        <ele>48</ele>
        <time>2018-03-11T10:29:03Z</time>
      </trkpt>
      <trkpt lat="47.52538" lon="-1.30444">
        <ele>47</ele>
        <time>2018-03-11T10:29:11Z</time>
      </trkpt>
      <trkpt lat="47.52547" lon="-1.30454">
        <ele>48</ele>
        <time>2018-03-11T10:29:21Z</time>
      </trkpt>
      <trkpt lat="47.52557" lon="-1.30466">
        <ele>48</ele>
        <time>2018-03-11T10:29:31Z</time>
      </trkpt>
      <trkpt lat="47.52568" lon="-1.30476">
        <ele>48</ele>
        <time>2018-03-11T10:29:40Z</time>
      </trkpt>
      <trkpt lat="47.52579" lon="-1.30484">
        <ele>48</ele>
        <time>2018-03-11T10:29:49Z</time>
      </trkpt>
      <trkpt lat="47.52589" lon="-1.30495">
        <ele>48</ele>
        <time>2018-03-11T10:30:00Z</time>
      </trkpt>
      <trkpt lat="47.52601" lon="-1.30506">
        <ele>48</ele>
        <time>2018-03-11T10:30:11Z</time>
      </trkpt>
      <trkpt lat="47.52611" lon="-1.30518">
        <ele>48</ele>
        <time>2018-03-11T10:30:21Z</time>
      </trkpt>
      <trkpt lat="47.52622" lon="-1.30526">
        <ele>47</ele>
        <time>2018-03-11T10:30:31Z</time>
      </trkpt>
      <trkpt lat="47.52631" lon="-1.30535">
        <ele>47</ele>
        <time>2018-03-11T10:30:40Z</time>
      </trkpt>
      <trkpt lat="47.52641" lon="-1.30544">
        <ele>47</ele>
        <time>2018-03-11T10:30:50Z</time>
      </trkpt>
      <trkpt lat="47.52651" lon="-1.30554">
        <ele>47</ele>
        <time>2018-03-11T10:30:59Z</time>
      </trkpt>
      <trkpt lat="47.52662" lon="-1.30565">
        <ele>47</ele>
        <time>2018-03-11T10:31:09Z</time>
      </trkpt>
      <trkpt lat="47.52672" lon="-1.30578">
        <ele>48</ele>
        <time>2018-03-11T10:31:22Z</time>
      </trkpt>
      <trkpt lat="47.52683" lon="-1.30587">
        <ele>47</ele>
        <time>2018-03-11T10:31:32Z</time>
      </trkpt>
      <trkpt lat="47.52691" lon="-1.30602">
        <ele>47</ele>
        <time>2018-03-11T10:31:46Z</time>
      </trkpt>
      <trkpt lat="47.52705" lon="-1.30614">
        <ele>46</ele>
        <time>2018-03-11T10:32:03Z</time>
      </trkpt>
      <trkpt lat="47.52718" lon="-1.30621">
        <ele>46</ele>
        <time>2018-03-11T10:32:13Z</time>
      </trkpt>
      <trkpt lat="47.52731" lon="-1.30627">
        <ele>46</ele>
        <time>2018-03-11T10:32:26Z</time>
      </trkpt>
      <trkpt lat="47.52748" lon="-1.30634">
        <ele>46</ele>
        <time>2018-03-11T10:32:41Z</time>
      </trkpt>
      <trkpt lat="47.52768" lon="-1.30641">
        <ele>46</ele>
        <time>2018-03-11T10:33:00Z</time>
      </trkpt>
      <trkpt lat="47.52796" lon="-1.30647">
        <ele>46</ele>
        <time>2018-03-11T10:33:22Z</time>
      </trkpt>
      <trkpt lat="47.52812" lon="-1.30651">
        <ele>46</ele>
        <time>2018-03-11T10:33:34Z</time>
      </trkpt>
      <trkpt lat="47.52825" lon="-1.30657">
        <ele>47</ele>
        <time>2018-03-11T10:33:43Z</time>
      </trkpt>
      <trkpt lat="47.5284" lon="-1.30663">
        <ele>47</ele>
        <time>2018-03-11T10:33:54Z</time>
      </trkpt>
      <trkpt lat="47.52852" lon="-1.3067">
        <ele>46</ele>
        <time>2018-03-11T10:34:04Z</time>
      </trkpt>
      <trkpt lat="47.52863" lon="-1.30677">
        <ele>46</ele>
        <time>2018-03-11T10:34:13Z</time>
      </trkpt>
      <trkpt lat="47.52874" lon="-1.30684">
        <ele>46</ele>
        <time>2018-03-11T10:34:22Z</time>
      </trkpt>
      <trkpt lat="47.52883" lon="-1.30693">
        <ele>46</ele>
        <time>2018-03-11T10:34:31Z</time>
      </trkpt>
      <trkpt lat="47.52894" lon="-1.30704">
        <ele>46</ele>
        <time>2018-03-11T10:34:41Z</time>
      </trkpt>
      <trkpt lat="47.52906" lon="-1.30712">
        <ele>46</ele>
        <time>2018-03-11T10:34:50Z</time>
      </trkpt>
      <trkpt lat="47.52917" lon="-1.3072">
        <ele>46</ele>
        <time>2018-03-11T10:34:58Z</time>
      </trkpt>
      <trkpt lat="47.52926" lon="-1.30729">
        <ele>46</ele>
        <time>2018-03-11T10:35:06Z</time>
      </trkpt>
      <trkpt lat="47.52936" lon="-1.30736">
        <ele>46</ele>
        <time>2018-03-11T10:35:13Z</time>
      </trkpt>
      <trkpt lat="47.52945" lon="-1.30743">
        <ele>46</ele>
        <time>2018-03-11T10:35:21Z</time>
      </trkpt>
      <trkpt lat="47.52955" lon="-1.30751">
        <ele>45</ele>
        <time>2018-03-11T10:35:29Z</time>
      </trkpt>
      <trkpt lat="47.52964" lon="-1.30758">
        <ele>45</ele>
        <time>2018-03-11T10:35:37Z</time>
      </trkpt>
      <trkpt lat="47.52973" lon="-1.30764">
        <ele>45</ele>
        <time>2018-03-11T10:35:46Z</time>
      </trkpt>
      <trkpt lat="47.52981" lon="-1.30772">
        <ele>45</ele>
        <time>2018-03-11T10:36:27Z</time>
      </trkpt>
      <trkpt lat="47.5299" lon="-1.30779">
        <ele>44</ele>
        <time>2018-03-11T10:36:35Z</time>
      </trkpt>
      <trkpt lat="47.52998" lon="-1.30771">
        <ele>45</ele>
        <time>2018-03-11T10:36:43Z</time>
      </trkpt>
      <trkpt lat="47.53005" lon="-1.30761">
        <ele>45</ele>
        <time>2018-03-11T10:36:50Z</time>
      </trkpt>
      <trkpt lat="47.53013" lon="-1.30751">
        <ele>45</ele>
        <time>2018-03-11T10:36:58Z</time>
      </trkpt>
      <trkpt lat="47.53021" lon="-1.30743">
        <ele>46</ele>
        <time>2018-03-11T10:37:05Z</time>
      </trkpt>
      <trkpt lat="47.53031" lon="-1.30736">
        <ele>46</ele>
        <time>2018-03-11T10:37:12Z</time>
      </trkpt>
      <trkpt lat="47.53041" lon="-1.30729">
        <ele>45</ele>
        <time>2018-03-11T10:37:19Z</time>
      </trkpt>
      <trkpt lat="47.53052" lon="-1.30721">
        <ele>45</ele>
        <time>2018-03-11T10:37:27Z</time>
      </trkpt>
      <trkpt lat="47.53064" lon="-1.30714">
        <ele>45</ele>
        <time>2018-03-11T10:37:36Z</time>
      </trkpt>
      <trkpt lat="47.53076" lon="-1.3071">
        <ele>45</ele>
        <time>2018-03-11T10:37:44Z</time>
      </trkpt>
      <trkpt lat="47.53089" lon="-1.30707">
        <ele>45</ele>
        <time>2018-03-11T10:37:53Z</time>
      </trkpt>
      <trkpt lat="47.53102" lon="-1.30705">
        <ele>45</ele>
        <time>2018-03-11T10:38:03Z</time>
      </trkpt>
      <trkpt lat="47.53114" lon="-1.307">
        <ele>45</ele>
        <time>2018-03-11T10:38:14Z</time>
      </trkpt>
      <trkpt lat="47.53126" lon="-1.30694">
        <ele>45</ele>
        <time>2018-03-11T10:38:22Z</time>
      </trkpt>
      <trkpt lat="47.5314" lon="-1.30691">
        <ele>45</ele>
        <time>2018-03-11T10:38:31Z</time>
      </trkpt>
      <trkpt lat="47.53152" lon="-1.30687">
        <ele>45</ele>
        <time>2018-03-11T10:38:41Z</time>
      </trkpt>
      <trkpt lat="47.5317" lon="-1.30691">
        <ele>45</ele>
        <time>2018-03-11T10:38:56Z</time>
      </trkpt>
      <trkpt lat="47.53183" lon="-1.30701">
        <ele>45</ele>
        <time>2018-03-11T10:39:05Z</time>
      </trkpt>
      <trkpt lat="47.53196" lon="-1.30713">
        <ele>45</ele>
        <time>2018-03-11T10:39:14Z</time>
      </trkpt>
      <trkpt lat="47.53205" lon="-1.30725">
        <ele>44</ele>
        <time>2018-03-11T10:39:23Z</time>
      </trkpt>
      <trkpt lat="47.53216" lon="-1.30735">
        <ele>44</ele>
        <time>2018-03-11T10:39:32Z</time>
      </trkpt>
      <trkpt lat="47.53226" lon="-1.30744">
        <ele>44</ele>
        <time>2018-03-11T10:39:39Z</time>
      </trkpt>
      <trkpt lat="47.53236" lon="-1.30752">
        <ele>43</ele>
        <time>2018-03-11T10:39:47Z</time>
      </trkpt>
      <trkpt lat="47.53248" lon="-1.30757">
        <ele>43</ele>
        <time>2018-03-11T10:39:55Z</time>
      </trkpt>
      <trkpt lat="47.53259" lon="-1.3076">
        <ele>42</ele>
        <time>2018-03-11T10:40:03Z</time>
      </trkpt>
      <trkpt lat="47.53272" lon="-1.30763">
        <ele>42</ele>
        <time>2018-03-11T10:40:11Z</time>
      </trkpt>
      <trkpt lat="47.53283" lon="-1.30759">
        <ele>42</ele>
        <time>2018-03-11T10:40:20Z</time>
      </trkpt>
      <trkpt lat="47.53296" lon="-1.30759">
        <ele>42</ele>
        <time>2018-03-11T10:40:30Z</time>
      </trkpt>
      <trkpt lat="47.53309" lon="-1.30762">
        <ele>42</ele>
        <time>2018-03-11T10:40:39Z</time>
      </trkpt>
      <trkpt lat="47.5332" lon="-1.30765">
        <ele>41</ele>
        <time>2018-03-11T10:40:48Z</time>
      </trkpt>
      <trkpt lat="47.53333" lon="-1.30762">
        <ele>41</ele>
        <time>2018-03-11T10:41:05Z</time>
      </trkpt>
      <trkpt lat="47.53341" lon="-1.30749">
        <ele>41</ele>
        <time>2018-03-11T10:41:13Z</time>
      </trkpt>
      <trkpt lat="47.5335" lon="-1.30737">
        <ele>41</ele>
        <time>2018-03-11T10:41:23Z</time>
      </trkpt>
      <trkpt lat="47.53362" lon="-1.30732">
        <ele>41</ele>
        <time>2018-03-11T10:41:35Z</time>
      </trkpt>
      <trkpt lat="47.53363" lon="-1.30724">
        <ele>41</ele>
        <time>2018-03-11T10:50:37Z</time>
      </trkpt>
      <trkpt lat="47.53354" lon="-1.3071">
        <ele>42</ele>
        <time>2018-03-11T10:50:45Z</time>
      </trkpt>
      <trkpt lat="47.53347" lon="-1.30697">
        <ele>42</ele>
        <time>2018-03-11T10:50:53Z</time>
      </trkpt>
      <trkpt lat="47.53339" lon="-1.30684">
        <ele>42</ele>
        <time>2018-03-11T10:51:04Z</time>
      </trkpt>
      <trkpt lat="47.5333" lon="-1.30674">
        <ele>43</ele>
        <time>2018-03-11T10:51:13Z</time>
      </trkpt>
      <trkpt lat="47.5332" lon="-1.30666">
        <ele>43</ele>
        <time>2018-03-11T10:51:22Z</time>
      </trkpt>
      <trkpt lat="47.53307" lon="-1.30659">
        <ele>44</ele>
        <time>2018-03-11T10:51:34Z</time>
      </trkpt>
      <trkpt lat="47.53294" lon="-1.30653">
        <ele>44</ele>
        <time>2018-03-11T10:51:44Z</time>
      </trkpt>
      <trkpt lat="47.53284" lon="-1.30645">
        <ele>44</ele>
        <time>2018-03-11T10:51:54Z</time>
      </trkpt>
      <trkpt lat="47.53273" lon="-1.30639">
        <ele>44</ele>
        <time>2018-03-11T10:52:04Z</time>
      </trkpt>
      <trkpt lat="47.53258" lon="-1.30638">
        <ele>44</ele>
        <time>2018-03-11T10:52:22Z</time>
      </trkpt>
      <trkpt lat="47.53248" lon="-1.30631">
        <ele>45</ele>
        <time>2018-03-11T10:52:32Z</time>
      </trkpt>
      <trkpt lat="47.53238" lon="-1.30626">
        <ele>45</ele>
        <time>2018-03-11T10:52:41Z</time>
      </trkpt>
      <trkpt lat="47.53228" lon="-1.30619">
        <ele>45</ele>
        <time>2018-03-11T10:52:50Z</time>
      </trkpt>
      <trkpt lat="47.5322" lon="-1.30612">
        <ele>45</ele>
        <time>2018-03-11T10:53:01Z</time>
      </trkpt>
      <trkpt lat="47.53217" lon="-1.30599">
        <ele>45</ele>
        <time>2018-03-11T10:53:11Z</time>
      </trkpt>
      <trkpt lat="47.53216" lon="-1.30584">
        <ele>45</ele>
        <time>2018-03-11T10:53:20Z</time>
      </trkpt>
      <trkpt lat="47.53217" lon="-1.3057">
        <ele>46</ele>
        <time>2018-03-11T10:53:28Z</time>
      </trkpt>
      <trkpt lat="47.53217" lon="-1.30556">
        <ele>46</ele>
        <time>2018-03-11T10:53:36Z</time>
      </trkpt>
      <trkpt lat="47.53217" lon="-1.30539">
        <ele>46</ele>
        <time>2018-03-11T10:53:45Z</time>
      </trkpt>
      <trkpt lat="47.53215" lon="-1.30524">
        <ele>46</ele>
        <time>2018-03-11T10:53:54Z</time>
      </trkpt>
      <trkpt lat="47.53212" lon="-1.3051">
        <ele>46</ele>
        <time>2018-03-11T10:54:03Z</time>
      </trkpt>
      <trkpt lat="47.53208" lon="-1.30497">
        <ele>46</ele>
        <time>2018-03-11T10:54:12Z</time>
      </trkpt>
      <trkpt lat="47.53203" lon="-1.30483">
        <ele>46</ele>
        <time>2018-03-11T10:54:21Z</time>
      </trkpt>
      <trkpt lat="47.53199" lon="-1.3047">
        <ele>46</ele>
        <time>2018-03-11T10:54:30Z</time>
      </trkpt>
      <trkpt lat="47.53194" lon="-1.30453">
        <ele>46</ele>
        <time>2018-03-11T10:54:41Z</time>
      </trkpt>
      <trkpt lat="47.5319" lon="-1.30437">
        <ele>47</ele>
        <time>2018-03-11T10:54:50Z</time>
      </trkpt>
      <trkpt lat="47.53185" lon="-1.30421">
        <ele>47</ele>
        <time>2018-03-11T10:54:59Z</time>
      </trkpt>
      <trkpt lat="47.53179" lon="-1.30406">
        <ele>47</ele>
        <time>2018-03-11T10:55:08Z</time>
      </trkpt>
      <trkpt lat="47.53173" lon="-1.30391">
        <ele>47</ele>
        <time>2018-03-11T10:55:17Z</time>
      </trkpt>
      <trkpt lat="47.53168" lon="-1.30377">
        <ele>47</ele>
        <time>2018-03-11T10:55:26Z</time>
      </trkpt>
      <trkpt lat="47.53162" lon="-1.30362">
        <ele>49</ele>
        <time>2018-03-11T10:55:35Z</time>
      </trkpt>
      <trkpt lat="47.53156" lon="-1.30348">
        <ele>49</ele>
        <time>2018-03-11T10:55:44Z</time>
      </trkpt>
      <trkpt lat="47.5315" lon="-1.30335">
        <ele>49</ele>
        <time>2018-03-11T10:55:53Z</time>
      </trkpt>
      <trkpt lat="47.53142" lon="-1.30322">
        <ele>49</ele>
        <time>2018-03-11T10:56:02Z</time>
      </trkpt>
      <trkpt lat="47.53134" lon="-1.3031">
        <ele>49</ele>
        <time>2018-03-11T10:56:11Z</time>
      </trkpt>
      <trkpt lat="47.53128" lon="-1.30296">
        <ele>49</ele>
        <time>2018-03-11T10:56:20Z</time>
      </trkpt>
      <trkpt lat="47.53124" lon="-1.30279">
        <ele>50</ele>
        <time>2018-03-11T10:56:29Z</time>
      </trkpt>
      <trkpt lat="47.5312" lon="-1.30264">
        <ele>50</ele>
        <time>2018-03-11T10:56:37Z</time>
      </trkpt>
      <trkpt lat="47.53115" lon="-1.30248">
        <ele>50</ele>
        <time>2018-03-11T10:56:45Z</time>
      </trkpt>
      <trkpt lat="47.53112" lon="-1.30232">
        <ele>50</ele>
        <time>2018-03-11T10:56:53Z</time>
      </trkpt>
      <trkpt lat="47.53109" lon="-1.30216">
        <ele>50</ele>
        <time>2018-03-11T10:57:01Z</time>
      </trkpt>
      <trkpt lat="47.53106" lon="-1.30203">
        <ele>50</ele>
        <time>2018-03-11T10:57:08Z</time>
      </trkpt>
      <trkpt lat="47.53104" lon="-1.30188">
        <ele>50</ele>
        <time>2018-03-11T10:57:16Z</time>
      </trkpt>
      <trkpt lat="47.53102" lon="-1.30174">
        <ele>50</ele>
        <time>2018-03-11T10:57:24Z</time>
      </trkpt>
      <trkpt lat="47.53099" lon="-1.30161">
        <ele>50</ele>
        <time>2018-03-11T10:57:31Z</time>
      </trkpt>
      <trkpt lat="47.53097" lon="-1.30145">
        <ele>50</ele>
        <time>2018-03-11T10:57:39Z</time>
      </trkpt>
      <trkpt lat="47.53095" lon="-1.3013">
        <ele>50</ele>
        <time>2018-03-11T10:57:47Z</time>
      </trkpt>
      <trkpt lat="47.53093" lon="-1.30114">
        <ele>50</ele>
        <time>2018-03-11T10:57:55Z</time>
      </trkpt>
      <trkpt lat="47.53092" lon="-1.301">
        <ele>50</ele>
        <time>2018-03-11T10:58:04Z</time>
      </trkpt>
      <trkpt lat="47.53092" lon="-1.30084">
        <ele>50</ele>
        <time>2018-03-11T10:58:14Z</time>
      </trkpt>
      <trkpt lat="47.53093" lon="-1.30068">
        <ele>50</ele>
        <time>2018-03-11T10:58:23Z</time>
      </trkpt>
      <trkpt lat="47.53095" lon="-1.30054">
        <ele>49</ele>
        <time>2018-03-11T10:58:31Z</time>
      </trkpt>
      <trkpt lat="47.53098" lon="-1.3004">
        <ele>49</ele>
        <time>2018-03-11T10:58:39Z</time>
      </trkpt>
      <trkpt lat="47.531" lon="-1.30025">
        <ele>50</ele>
        <time>2018-03-11T10:58:47Z</time>
      </trkpt>
      <trkpt lat="47.53103" lon="-1.3001">
        <ele>50</ele>
        <time>2018-03-11T10:58:56Z</time>
      </trkpt>
      <trkpt lat="47.53107" lon="-1.29994">
        <ele>50</ele>
        <time>2018-03-11T10:59:06Z</time>
      </trkpt>
      <trkpt lat="47.5311" lon="-1.29978">
        <ele>50</ele>
        <time>2018-03-11T10:59:14Z</time>
      </trkpt>
      <trkpt lat="47.53114" lon="-1.29963">
        <ele>50</ele>
        <time>2018-03-11T10:59:22Z</time>
      </trkpt>
      <trkpt lat="47.53118" lon="-1.29947">
        <ele>50</ele>
        <time>2018-03-11T10:59:31Z</time>
      </trkpt>
      <trkpt lat="47.53121" lon="-1.2993">
        <ele>50</ele>
        <time>2018-03-11T10:59:40Z</time>
      </trkpt>
      <trkpt lat="47.53126" lon="-1.29915">
        <ele>51</ele>
        <time>2018-03-11T10:59:49Z</time>
      </trkpt>
      <trkpt lat="47.53131" lon="-1.29899">
        <ele>51</ele>
        <time>2018-03-11T10:59:57Z</time>
      </trkpt>
      <trkpt lat="47.53135" lon="-1.29884">
        <ele>51</ele>
        <time>2018-03-11T11:00:05Z</time>
      </trkpt>
      <trkpt lat="47.5314" lon="-1.2987">
        <ele>52</ele>
        <time>2018-03-11T11:00:12Z</time>
      </trkpt>
      <trkpt lat="47.53144" lon="-1.29853">
        <ele>52</ele>
        <time>2018-03-11T11:00:21Z</time>
      </trkpt>
      <trkpt lat="47.53145" lon="-1.29839">
        <ele>52</ele>
        <time>2018-03-11T11:00:29Z</time>
      </trkpt>
      <trkpt lat="47.53149" lon="-1.29822">
        <ele>53</ele>
        <time>2018-03-11T11:00:39Z</time>
      </trkpt>
      <trkpt lat="47.53152" lon="-1.29807">
        <ele>53</ele>
        <time>2018-03-11T11:00:49Z</time>
      </trkpt>
      <trkpt lat="47.53157" lon="-1.2979">
        <ele>53</ele>
        <time>2018-03-11T11:01:00Z</time>
      </trkpt>
      <trkpt lat="47.5316" lon="-1.29772">
        <ele>53</ele>
        <time>2018-03-11T11:01:10Z</time>
      </trkpt>
      <trkpt lat="47.53163" lon="-1.29752">
        <ele>54</ele>
        <time>2018-03-11T11:01:23Z</time>
      </trkpt>
      <trkpt lat="47.53165" lon="-1.2973">
        <ele>54</ele>
        <time>2018-03-11T11:01:36Z</time>
      </trkpt>
      <trkpt lat="47.53168" lon="-1.29693">
        <ele>55</ele>
        <time>2018-03-11T11:01:57Z</time>
      </trkpt>
      <trkpt lat="47.5317" lon="-1.29661">
        <ele>54</ele>
        <time>2018-03-11T11:02:21Z</time>
      </trkpt>
      <trkpt lat="47.53172" lon="-1.29635">
        <ele>54</ele>
        <time>2018-03-11T11:02:39Z</time>
      </trkpt>
      <trkpt lat="47.53172" lon="-1.29612">
        <ele>54</ele>
        <time>2018-03-11T11:02:52Z</time>
      </trkpt>
      <trkpt lat="47.53171" lon="-1.29518">
        <ele>53</ele>
        <time>2018-03-11T11:03:51Z</time>
      </trkpt>
      <trkpt lat="47.53167" lon="-1.29401">
        <ele>54</ele>
        <time>2018-03-11T11:04:39Z</time>
      </trkpt>
      <trkpt lat="47.5317" lon="-1.29369">
        <ele>53</ele>
        <time>2018-03-11T11:04:56Z</time>
      </trkpt>
      <trkpt lat="47.53175" lon="-1.2931">
        <ele>53</ele>
        <time>2018-03-11T11:05:28Z</time>
      </trkpt>
      <trkpt lat="47.53172" lon="-1.2924">
        <ele>53</ele>
        <time>2018-03-11T11:06:06Z</time>
      </trkpt>
      <trkpt lat="47.53152" lon="-1.29225">
        <ele>52</ele>
        <time>2018-03-11T11:06:31Z</time>
      </trkpt>
      <trkpt lat="47.53154" lon="-1.29206">
        <ele>52</ele>
        <time>2018-03-11T11:06:51Z</time>
      </trkpt>
      <trkpt lat="47.53152" lon="-1.29191">
        <ele>52</ele>
        <time>2018-03-11T11:07:09Z</time>
      </trkpt>
      <trkpt lat="47.53149" lon="-1.29174">
        <ele>52</ele>
        <time>2018-03-11T11:07:22Z</time>
      </trkpt>
      <trkpt lat="47.53145" lon="-1.29154">
        <ele>51</ele>
        <time>2018-03-11T11:07:34Z</time>
      </trkpt>
      <trkpt lat="47.53142" lon="-1.29135">
        <ele>51</ele>
        <time>2018-03-11T11:07:45Z</time>
      </trkpt>
      <trkpt lat="47.53138" lon="-1.2911">
        <ele>51</ele>
        <time>2018-03-11T11:08:01Z</time>
      </trkpt>
      <trkpt lat="47.53134" lon="-1.29088">
        <ele>50</ele>
        <time>2018-03-11T11:08:16Z</time>
      </trkpt>
      <trkpt lat="47.5313" lon="-1.29064">
        <ele>49</ele>
        <time>2018-03-11T11:08:31Z</time>
      </trkpt>
      <trkpt lat="47.53126" lon="-1.29039">
        <ele>49</ele>
        <time>2018-03-11T11:08:45Z</time>
      </trkpt>
      <trkpt lat="47.53116" lon="-1.28988">
        <ele>48</ele>
        <time>2018-03-11T11:09:18Z</time>
      </trkpt>
      <trkpt lat="47.53109" lon="-1.2897">
        <ele>48</ele>
        <time>2018-03-11T11:09:34Z</time>
      </trkpt>
      <trkpt lat="47.53099" lon="-1.28944">
        <ele>49</ele>
        <time>2018-03-11T11:09:50Z</time>
      </trkpt>
      <trkpt lat="47.5309" lon="-1.2892">
        <ele>49</ele>
        <time>2018-03-11T11:10:06Z</time>
      </trkpt>
      <trkpt lat="47.5308" lon="-1.28892">
        <ele>50</ele>
        <time>2018-03-11T11:10:21Z</time>
      </trkpt>
      <trkpt lat="47.53063" lon="-1.28845">
        <ele>50</ele>
        <time>2018-03-11T11:10:53Z</time>
      </trkpt>
      <trkpt lat="47.53049" lon="-1.28806">
        <ele>52</ele>
        <time>2018-03-11T11:11:18Z</time>
      </trkpt>
      <trkpt lat="47.53039" lon="-1.28777">
        <ele>53</ele>
        <time>2018-03-11T11:11:37Z</time>
      </trkpt>
      <trkpt lat="47.53023" lon="-1.28764">
        <ele>54</ele>
        <time>2018-03-11T11:12:04Z</time>
      </trkpt>
      <trkpt lat="47.53011" lon="-1.28766">
        <ele>54</ele>
        <time>2018-03-11T11:12:15Z</time>
      </trkpt>
      <trkpt lat="47.53" lon="-1.28769">
        <ele>54</ele>
        <time>2018-03-11T11:12:24Z</time>
      </trkpt>
      <trkpt lat="47.52989" lon="-1.28773">
        <ele>54</ele>
        <time>2018-03-11T11:12:33Z</time>
      </trkpt>
      <trkpt lat="47.52978" lon="-1.28779">
        <ele>54</ele>
        <time>2018-03-11T11:12:42Z</time>
      </trkpt>
      <trkpt lat="47.52966" lon="-1.28787">
        <ele>54</ele>
        <time>2018-03-11T11:12:51Z</time>
      </trkpt>
      <trkpt lat="47.52956" lon="-1.28792">
        <ele>54</ele>
        <time>2018-03-11T11:12:59Z</time>
      </trkpt>
      <trkpt lat="47.52945" lon="-1.28798">
        <ele>54</ele>
        <time>2018-03-11T11:13:07Z</time>
      </trkpt>
      <trkpt lat="47.52935" lon="-1.28803">
        <ele>53</ele>
        <time>2018-03-11T11:13:16Z</time>
      </trkpt>
      <trkpt lat="47.52923" lon="-1.28809">
        <ele>53</ele>
        <time>2018-03-11T11:13:26Z</time>
      </trkpt>
      <trkpt lat="47.52912" lon="-1.28814">
        <ele>52</ele>
        <time>2018-03-11T11:13:35Z</time>
      </trkpt>
      <trkpt lat="47.52901" lon="-1.2882">
        <ele>52</ele>
        <time>2018-03-11T11:13:44Z</time>
      </trkpt>
      <trkpt lat="47.5289" lon="-1.28826">
        <ele>52</ele>
        <time>2018-03-11T11:13:53Z</time>
      </trkpt>
      <trkpt lat="47.52883" lon="-1.2882">
        <ele>52</ele>
        <time>2018-03-11T11:14:04Z</time>
      </trkpt>
      <trkpt lat="47.52883" lon="-1.28804">
        <ele>52</ele>
        <time>2018-03-11T11:14:16Z</time>
      </trkpt>
      <trkpt lat="47.52887" lon="-1.28786">
        <ele>52</ele>
        <time>2018-03-11T11:14:28Z</time>
      </trkpt>
      <trkpt lat="47.52892" lon="-1.28767">
        <ele>53</ele>
        <time>2018-03-11T11:14:39Z</time>
      </trkpt>
      <trkpt lat="47.52895" lon="-1.28745">
        <ele>53</ele>
        <time>2018-03-11T11:14:50Z</time>
      </trkpt>
      <trkpt lat="47.52898" lon="-1.28724">
        <ele>53</ele>
        <time>2018-03-11T11:15:01Z</time>
      </trkpt>
      <trkpt lat="47.52899" lon="-1.28702">
        <ele>53</ele>
        <time>2018-03-11T11:15:11Z</time>
      </trkpt>
      <trkpt lat="47.52901" lon="-1.28682">
        <ele>53</ele>
        <time>2018-03-11T11:15:21Z</time>
      </trkpt>
      <trkpt lat="47.52903" lon="-1.28664">
        <ele>53</ele>
        <time>2018-03-11T11:15:30Z</time>
      </trkpt>
      <trkpt lat="47.52905" lon="-1.28642">
        <ele>52</ele>
        <time>2018-03-11T11:15:42Z</time>
      </trkpt>
      <trkpt lat="47.52909" lon="-1.28622">
        <ele>52</ele>
        <time>2018-03-11T11:15:54Z</time>
      </trkpt>
      <trkpt lat="47.52912" lon="-1.28601">
        <ele>52</ele>
        <time>2018-03-11T11:16:05Z</time>
      </trkpt>
      <trkpt lat="47.52914" lon="-1.28582">
        <ele>53</ele>
        <time>2018-03-11T11:16:15Z</time>
      </trkpt>
      <trkpt lat="47.52917" lon="-1.28558">
        <ele>51</ele>
        <time>2018-03-11T11:16:29Z</time>
      </trkpt>
      <trkpt lat="47.52918" lon="-1.28537">
        <ele>55</ele>
        <time>2018-03-11T11:16:40Z</time>
      </trkpt>
      <trkpt lat="47.5292" lon="-1.28518">
        <ele>54</ele>
        <time>2018-03-11T11:16:52Z</time>
      </trkpt>
      <trkpt lat="47.52924" lon="-1.28495">
        <ele>53</ele>
        <time>2018-03-11T11:17:02Z</time>
      </trkpt>
      <trkpt lat="47.52926" lon="-1.28475">
        <ele>54</ele>
        <time>2018-03-11T11:17:12Z</time>
      </trkpt>
      <trkpt lat="47.52927" lon="-1.28456">
        <ele>55</ele>
        <time>2018-03-11T11:17:22Z</time>
      </trkpt>
      <trkpt lat="47.52932" lon="-1.28429">
        <ele>54</ele>
        <time>2018-03-11T11:17:37Z</time>
      </trkpt>
      <trkpt lat="47.52934" lon="-1.28406">
        <ele>54</ele>
        <time>2018-03-11T11:17:47Z</time>
      </trkpt>
      <trkpt lat="47.52938" lon="-1.28383">
        <ele>55</ele>
        <time>2018-03-11T11:17:59Z</time>
      </trkpt>
      <trkpt lat="47.52942" lon="-1.28353">
        <ele>55</ele>
        <time>2018-03-11T11:18:16Z</time>
      </trkpt>
      <trkpt lat="47.52945" lon="-1.28325">
        <ele>54</ele>
        <time>2018-03-11T11:18:34Z</time>
      </trkpt>
      <trkpt lat="47.5295" lon="-1.28299">
        <ele>55</ele>
        <time>2018-03-11T11:18:48Z</time>
      </trkpt>
      <trkpt lat="47.52952" lon="-1.28274">
        <ele>55</ele>
        <time>2018-03-11T11:19:02Z</time>
      </trkpt>
      <trkpt lat="47.52955" lon="-1.28254">
        <ele>55</ele>
        <time>2018-03-11T11:19:14Z</time>
      </trkpt>
      <trkpt lat="47.5296" lon="-1.28219">
        <ele>54</ele>
        <time>2018-03-11T11:19:35Z</time>
      </trkpt>
      <trkpt lat="47.52962" lon="-1.28195">
        <ele>54</ele>
        <time>2018-03-11T11:19:50Z</time>
      </trkpt>
      <trkpt lat="47.52967" lon="-1.28163">
        <ele>54</ele>
        <time>2018-03-11T11:20:09Z</time>
      </trkpt>
      <trkpt lat="47.52972" lon="-1.28142">
        <ele>54</ele>
        <time>2018-03-11T11:20:22Z</time>
      </trkpt>
      <trkpt lat="47.52973" lon="-1.28121">
        <ele>54</ele>
        <time>2018-03-11T11:20:35Z</time>
      </trkpt>
      <trkpt lat="47.52981" lon="-1.28071">
        <ele>55</ele>
        <time>2018-03-11T11:21:03Z</time>
      </trkpt>
      <trkpt lat="47.52983" lon="-1.28011">
        <ele>54</ele>
        <time>2018-03-11T11:21:35Z</time>
      </trkpt>
      <trkpt lat="47.52984" lon="-1.27976">
        <ele>55</ele>
        <time>2018-03-11T11:21:52Z</time>
      </trkpt>
      <trkpt lat="47.52987" lon="-1.2794">
        <ele>56</ele>
        <time>2018-03-11T11:22:11Z</time>
      </trkpt>
      <trkpt lat="47.52993" lon="-1.27904">
        <ele>57</ele>
        <time>2018-03-11T11:22:35Z</time>
      </trkpt>
      <trkpt lat="47.52997" lon="-1.27866">
        <ele>58</ele>
        <time>2018-03-11T11:23:15Z</time>
      </trkpt>
      <trkpt lat="47.52983" lon="-1.27867">
        <ele>58</ele>
        <time>2018-03-11T11:23:26Z</time>
      </trkpt>
      <trkpt lat="47.5297" lon="-1.27872">
        <ele>58</ele>
        <time>2018-03-11T11:23:36Z</time>
      </trkpt>
      <trkpt lat="47.52958" lon="-1.27876">
        <ele>58</ele>
        <time>2018-03-11T11:23:46Z</time>
      </trkpt>
      <trkpt lat="47.52946" lon="-1.27882">
        <ele>57</ele>
        <time>2018-03-11T11:23:57Z</time>
      </trkpt>
      <trkpt lat="47.52933" lon="-1.27888">
        <ele>57</ele>
        <time>2018-03-11T11:24:09Z</time>
      </trkpt>
      <trkpt lat="47.5292" lon="-1.27893">
        <ele>56</ele>
        <time>2018-03-11T11:24:20Z</time>
      </trkpt>
      <trkpt lat="47.52906" lon="-1.27898">
        <ele>56</ele>
        <time>2018-03-11T11:24:31Z</time>
      </trkpt>
      <trkpt lat="47.52891" lon="-1.27903">
        <ele>56</ele>
        <time>2018-03-11T11:24:42Z</time>
      </trkpt>
      <trkpt lat="47.52877" lon="-1.27905">
        <ele>56</ele>
        <time>2018-03-11T11:24:53Z</time>
      </trkpt>
      <trkpt lat="47.52862" lon="-1.2791">
        <ele>56</ele>
        <time>2018-03-11T11:25:05Z</time>
      </trkpt>
      <trkpt lat="47.52846" lon="-1.27915">
        <ele>56</ele>
        <time>2018-03-11T11:25:18Z</time>
      </trkpt>
      <trkpt lat="47.52819" lon="-1.27924">
        <ele>54</ele>
        <time>2018-03-11T11:25:45Z</time>
      </trkpt>
      <trkpt lat="47.52781" lon="-1.27937">
        <ele>54</ele>
        <time>2018-03-11T11:26:16Z</time>
      </trkpt>
      <trkpt lat="47.52761" lon="-1.27942">
        <ele>54</ele>
        <time>2018-03-11T11:26:29Z</time>
      </trkpt>
      <trkpt lat="47.52743" lon="-1.27947">
        <ele>53</ele>
        <time>2018-03-11T11:26:43Z</time>
      </trkpt>
      <trkpt lat="47.52721" lon="-1.27955">
        <ele>52</ele>
        <time>2018-03-11T11:26:59Z</time>
      </trkpt>
      <trkpt lat="47.52669" lon="-1.27978">
        <ele>51</ele>
        <time>2018-03-11T11:27:44Z</time>
      </trkpt>
      <trkpt lat="47.52643" lon="-1.27992">
        <ele>49</ele>
        <time>2018-03-11T11:28:01Z</time>
      </trkpt>
      <trkpt lat="47.52626" lon="-1.28">
        <ele>49</ele>
        <time>2018-03-11T11:28:13Z</time>
      </trkpt>
      <trkpt lat="47.52613" lon="-1.28005">
        <ele>48</ele>
        <time>2018-03-11T11:28:21Z</time>
      </trkpt>
      <trkpt lat="47.52599" lon="-1.28008">
        <ele>48</ele>
        <time>2018-03-11T11:28:29Z</time>
      </trkpt>
      <trkpt lat="47.52587" lon="-1.28012">
        <ele>48</ele>
        <time>2018-03-11T11:28:37Z</time>
      </trkpt>
      <trkpt lat="47.52576" lon="-1.28011">
        <ele>47</ele>
        <time>2018-03-11T11:28:45Z</time>
      </trkpt>
      <trkpt lat="47.52565" lon="-1.28016">
        <ele>48</ele>
        <time>2018-03-11T11:28:53Z</time>
      </trkpt>
      <trkpt lat="47.52555" lon="-1.28021">
        <ele>48</ele>
        <time>2018-03-11T11:29:01Z</time>
      </trkpt>
      <trkpt lat="47.52544" lon="-1.28025">
        <ele>48</ele>
        <time>2018-03-11T11:29:10Z</time>
      </trkpt>
      <trkpt lat="47.52532" lon="-1.28031">
        <ele>48</ele>
        <time>2018-03-11T11:29:20Z</time>
      </trkpt>
      <trkpt lat="47.52521" lon="-1.28037">
        <ele>48</ele>
        <time>2018-03-11T11:29:29Z</time>
      </trkpt>
      <trkpt lat="47.5251" lon="-1.28041">
        <ele>48</ele>
        <time>2018-03-11T11:29:38Z</time>
      </trkpt>
      <trkpt lat="47.52498" lon="-1.28045">
        <ele>48</ele>
        <time>2018-03-11T11:29:47Z</time>
      </trkpt>
      <trkpt lat="47.52487" lon="-1.28046">
        <ele>48</ele>
        <time>2018-03-11T11:29:55Z</time>
      </trkpt>
      <trkpt lat="47.52476" lon="-1.28048">
        <ele>48</ele>
        <time>2018-03-11T11:30:03Z</time>
      </trkpt>
      <trkpt lat="47.52464" lon="-1.2805">
        <ele>48</ele>
        <time>2018-03-11T11:30:11Z</time>
      </trkpt>
      <trkpt lat="47.52454" lon="-1.28053">
        <ele>48</ele>
        <time>2018-03-11T11:30:19Z</time>
      </trkpt>
      <trkpt lat="47.52444" lon="-1.28056">
        <ele>48</ele>
        <time>2018-03-11T11:30:26Z</time>
      </trkpt>
      <trkpt lat="47.52433" lon="-1.28059">
        <ele>48</ele>
        <time>2018-03-11T11:30:33Z</time>
      </trkpt>
      <trkpt lat="47.52423" lon="-1.28062">
        <ele>47</ele>
        <time>2018-03-11T11:30:40Z</time>
      </trkpt>
      <trkpt lat="47.52413" lon="-1.28066">
        <ele>47</ele>
        <time>2018-03-11T11:30:48Z</time>
      </trkpt>
      <trkpt lat="47.52402" lon="-1.2807">
        <ele>47</ele>
        <time>2018-03-11T11:30:56Z</time>
      </trkpt>
      <trkpt lat="47.52392" lon="-1.28072">
        <ele>47</ele>
        <time>2018-03-11T11:31:03Z</time>
      </trkpt>
      <trkpt lat="47.52382" lon="-1.28074">
        <ele>47</ele>
        <time>2018-03-11T11:31:12Z</time>
      </trkpt>
      <trkpt lat="47.52373" lon="-1.28076">
        <ele>47</ele>
        <time>2018-03-11T11:31:23Z</time>
      </trkpt>
      <trkpt lat="47.52364" lon="-1.28078">
        <ele>47</ele>
        <time>2018-03-11T11:31:32Z</time>
      </trkpt>
      <trkpt lat="47.52353" lon="-1.2808">
        <ele>47</ele>
        <time>2018-03-11T11:31:43Z</time>
      </trkpt>
      <trkpt lat="47.5234" lon="-1.28087">
        <ele>46</ele>
        <time>2018-03-11T11:32:05Z</time>
      </trkpt>
      <trkpt lat="47.5233" lon="-1.2809">
        <ele>46</ele>
        <time>2018-03-11T11:32:14Z</time>
      </trkpt>
      <trkpt lat="47.52321" lon="-1.28092">
        <ele>46</ele>
        <time>2018-03-11T11:32:22Z</time>
      </trkpt>
      <trkpt lat="47.5231" lon="-1.28095">
        <ele>46</ele>
        <time>2018-03-11T11:32:31Z</time>
      </trkpt>
      <trkpt lat="47.52299" lon="-1.28096">
        <ele>46</ele>
        <time>2018-03-11T11:32:40Z</time>
      </trkpt>
      <trkpt lat="47.5229" lon="-1.281">
        <ele>46</ele>
        <time>2018-03-11T11:32:49Z</time>
      </trkpt>
      <trkpt lat="47.52285" lon="-1.28112">
        <ele>46</ele>
        <time>2018-03-11T11:32:59Z</time>
      </trkpt>
      <trkpt lat="47.52281" lon="-1.28124">
        <ele>46</ele>
        <time>2018-03-11T11:33:07Z</time>
      </trkpt>
      <trkpt lat="47.52277" lon="-1.28136">
        <ele>46</ele>
        <time>2018-03-11T11:33:15Z</time>
      </trkpt>
      <trkpt lat="47.52273" lon="-1.28151">
        <ele>46</ele>
        <time>2018-03-11T11:33:24Z</time>
      </trkpt>
      <trkpt lat="47.52269" lon="-1.28164">
        <ele>46</ele>
        <time>2018-03-11T11:33:31Z</time>
      </trkpt>
      <trkpt lat="47.52265" lon="-1.28177">
        <ele>46</ele>
        <time>2018-03-11T11:33:38Z</time>
      </trkpt>
      <trkpt lat="47.52258" lon="-1.28191">
        <ele>46</ele>
        <time>2018-03-11T11:33:45Z</time>
      </trkpt>
      <trkpt lat="47.52253" lon="-1.28205">
        <ele>46</ele>
        <time>2018-03-11T11:33:52Z</time>
      </trkpt>
      <trkpt lat="47.52249" lon="-1.28218">
        <ele>45</ele>
        <time>2018-03-11T11:33:59Z</time>
      </trkpt>
      <trkpt lat="47.52245" lon="-1.28232">
        <ele>45</ele>
        <time>2018-03-11T11:34:06Z</time>
      </trkpt>
      <trkpt lat="47.52241" lon="-1.28246">
        <ele>46</ele>
        <time>2018-03-11T11:34:13Z</time>
      </trkpt>
      <trkpt lat="47.52238" lon="-1.2826">
        <ele>45</ele>
        <time>2018-03-11T11:34:20Z</time>
      </trkpt>
      <trkpt lat="47.52234" lon="-1.28274">
        <ele>45</ele>
        <time>2018-03-11T11:34:27Z</time>
      </trkpt>
      <trkpt lat="47.52231" lon="-1.28287">
        <ele>45</ele>
        <time>2018-03-11T11:34:35Z</time>
      </trkpt>
      <trkpt lat="47.52228" lon="-1.28301">
        <ele>45</ele>
        <time>2018-03-11T11:34:42Z</time>
      </trkpt>
      <trkpt lat="47.52226" lon="-1.28315">
        <ele>45</ele>
        <time>2018-03-11T11:34:49Z</time>
      </trkpt>
      <trkpt lat="47.52224" lon="-1.28329">
        <ele>45</ele>
        <time>2018-03-11T11:34:56Z</time>
      </trkpt>
      <trkpt lat="47.52222" lon="-1.28342">
        <ele>45</ele>
        <time>2018-03-11T11:35:03Z</time>
      </trkpt>
      <trkpt lat="47.52219" lon="-1.28356">
        <ele>45</ele>
        <time>2018-03-11T11:35:10Z</time>
      </trkpt>
      <trkpt lat="47.52217" lon="-1.2837">
        <ele>44</ele>
        <time>2018-03-11T11:35:17Z</time>
      </trkpt>
      <trkpt lat="47.52216" lon="-1.28385">
        <ele>44</ele>
        <time>2018-03-11T11:35:24Z</time>
      </trkpt>
      <trkpt lat="47.52214" lon="-1.28398">
        <ele>44</ele>
        <time>2018-03-11T11:35:30Z</time>
      </trkpt>
      <trkpt lat="47.52212" lon="-1.28412">
        <ele>44</ele>
        <time>2018-03-11T11:35:37Z</time>
      </trkpt>
      <trkpt lat="47.52209" lon="-1.28426">
        <ele>44</ele>
        <time>2018-03-11T11:35:44Z</time>
      </trkpt>
      <trkpt lat="47.52208" lon="-1.28441">
        <ele>44</ele>
        <time>2018-03-11T11:35:51Z</time>
      </trkpt>
      <trkpt lat="47.52206" lon="-1.28456">
        <ele>43</ele>
        <time>2018-03-11T11:35:58Z</time>
      </trkpt>
      <trkpt lat="47.52205" lon="-1.28471">
        <ele>43</ele>
        <time>2018-03-11T11:36:05Z</time>
      </trkpt>
      <trkpt lat="47.52203" lon="-1.28485">
        <ele>43</ele>
        <time>2018-03-11T11:36:11Z</time>
      </trkpt>
      <trkpt lat="47.52199" lon="-1.28499">
        <ele>43</ele>
        <time>2018-03-11T11:36:18Z</time>
      </trkpt>
      <trkpt lat="47.52192" lon="-1.2851">
        <ele>42</ele>
        <time>2018-03-11T11:36:25Z</time>
      </trkpt>
      <trkpt lat="47.52183" lon="-1.28517">
        <ele>42</ele>
        <time>2018-03-11T11:36:32Z</time>
      </trkpt>
      <trkpt lat="47.52175" lon="-1.28525">
        <ele>42</ele>
        <time>2018-03-11T11:36:39Z</time>
      </trkpt>
      <trkpt lat="47.52165" lon="-1.28534">
        <ele>42</ele>
        <time>2018-03-11T11:36:47Z</time>
      </trkpt>
      <trkpt lat="47.52158" lon="-1.28543">
        <ele>41</ele>
        <time>2018-03-11T11:36:54Z</time>
      </trkpt>
      <trkpt lat="47.52148" lon="-1.28552">
        <ele>41</ele>
        <time>2018-03-11T11:37:02Z</time>
      </trkpt>
      <trkpt lat="47.5214" lon="-1.28559">
        <ele>41</ele>
        <time>2018-03-11T11:37:10Z</time>
      </trkpt>
      <trkpt lat="47.5213" lon="-1.28565">
        <ele>41</ele>
        <time>2018-03-11T11:37:17Z</time>
      </trkpt>
      <trkpt lat="47.52121" lon="-1.28571">
        <ele>41</ele>
        <time>2018-03-11T11:37:24Z</time>
      </trkpt>
      <trkpt lat="47.52111" lon="-1.28574">
        <ele>40</ele>
        <time>2018-03-11T11:37:31Z</time>
      </trkpt>
      <trkpt lat="47.52103" lon="-1.28575">
        <ele>40</ele>
        <time>2018-03-11T11:37:38Z</time>
      </trkpt>
      <trkpt lat="47.52093" lon="-1.28576">
        <ele>40</ele>
        <time>2018-03-11T11:37:46Z</time>
      </trkpt>
      <trkpt lat="47.52083" lon="-1.28574">
        <ele>39</ele>
        <time>2018-03-11T11:37:54Z</time>
      </trkpt>
      <trkpt lat="47.52074" lon="-1.28574">
        <ele>39</ele>
        <time>2018-03-11T11:38:02Z</time>
      </trkpt>
      <trkpt lat="47.52064" lon="-1.28572">
        <ele>39</ele>
        <time>2018-03-11T11:38:09Z</time>
      </trkpt>
      <trkpt lat="47.52054" lon="-1.2857">
        <ele>40</ele>
        <time>2018-03-11T11:38:16Z</time>
      </trkpt>
      <trkpt lat="47.52044" lon="-1.28569">
        <ele>40</ele>
        <time>2018-03-11T11:38:23Z</time>
      </trkpt>
      <trkpt lat="47.52034" lon="-1.28567">
        <ele>40</ele>
        <time>2018-03-11T11:38:30Z</time>
      </trkpt>
      <trkpt lat="47.52024" lon="-1.28565">
        <ele>39</ele>
        <time>2018-03-11T11:38:37Z</time>
      </trkpt>
      <trkpt lat="47.52013" lon="-1.28563">
        <ele>39</ele>
        <time>2018-03-11T11:38:44Z</time>
      </trkpt>
      <trkpt lat="47.52003" lon="-1.28562">
        <ele>39</ele>
        <time>2018-03-11T11:38:51Z</time>
      </trkpt>
      <trkpt lat="47.51993" lon="-1.28561">
        <ele>39</ele>
        <time>2018-03-11T11:38:58Z</time>
      </trkpt>
      <trkpt lat="47.51983" lon="-1.28561">
        <ele>39</ele>
        <time>2018-03-11T11:39:06Z</time>
      </trkpt>
      <trkpt lat="47.51971" lon="-1.28559">
        <ele>39</ele>
        <time>2018-03-11T11:39:57Z</time>
      </trkpt>
      <trkpt lat="47.51961" lon="-1.28564">
        <ele>39</ele>
        <time>2018-03-11T11:40:07Z</time>
      </trkpt>
      <trkpt lat="47.51951" lon="-1.28566">
        <ele>39</ele>
        <time>2018-03-11T11:40:15Z</time>
      </trkpt>
      <trkpt lat="47.51941" lon="-1.28564">
        <ele>39</ele>
        <time>2018-03-11T11:40:23Z</time>
      </trkpt>
      <trkpt lat="47.5193" lon="-1.28562">
        <ele>39</ele>
        <time>2018-03-11T11:40:31Z</time>
      </trkpt>
      <trkpt lat="47.5192" lon="-1.2856">
        <ele>39</ele>
        <time>2018-03-11T11:40:39Z</time>
      </trkpt>
      <trkpt lat="47.5191" lon="-1.28559">
        <ele>38</ele>
        <time>2018-03-11T11:40:48Z</time>
      </trkpt>
      <trkpt lat="47.51899" lon="-1.28556">
        <ele>38</ele>
        <time>2018-03-11T11:40:57Z</time>
      </trkpt>
      <trkpt lat="47.51887" lon="-1.28555">
        <ele>38</ele>
        <time>2018-03-11T11:41:05Z</time>
      </trkpt>
      <trkpt lat="47.51875" lon="-1.28552">
        <ele>38</ele>
        <time>2018-03-11T11:41:13Z</time>
      </trkpt>
      <trkpt lat="47.51864" lon="-1.28549">
        <ele>38</ele>
        <time>2018-03-11T11:41:20Z</time>
      </trkpt>
      <trkpt lat="47.51854" lon="-1.28547">
        <ele>38</ele>
        <time>2018-03-11T11:41:27Z</time>
      </trkpt>
      <trkpt lat="47.51843" lon="-1.28544">
        <ele>38</ele>
        <time>2018-03-11T11:41:35Z</time>
      </trkpt>
      <trkpt lat="47.51833" lon="-1.28541">
        <ele>38</ele>
        <time>2018-03-11T11:41:42Z</time>
      </trkpt>
      <trkpt lat="47.51824" lon="-1.28537">
        <ele>37</ele>
        <time>2018-03-11T11:41:49Z</time>
      </trkpt>
      <trkpt lat="47.51816" lon="-1.28532">
        <ele>37</ele>
        <time>2018-03-11T11:41:56Z</time>
      </trkpt>
      <trkpt lat="47.51807" lon="-1.28533">
        <ele>37</ele>
        <time>2018-03-11T11:42:03Z</time>
      </trkpt>
      <trkpt lat="47.51799" lon="-1.28543">
        <ele>37</ele>
        <time>2018-03-11T11:42:11Z</time>
      </trkpt>
      <trkpt lat="47.51794" lon="-1.28557">
        <ele>37</ele>
        <time>2018-03-11T11:42:19Z</time>
      </trkpt>
      <trkpt lat="47.51789" lon="-1.28572">
        <ele>37</ele>
        <time>2018-03-11T11:42:27Z</time>
      </trkpt>
      <trkpt lat="47.51783" lon="-1.28583">
        <ele>37</ele>
        <time>2018-03-11T11:42:35Z</time>
      </trkpt>
      <trkpt lat="47.51776" lon="-1.28592">
        <ele>37</ele>
        <time>2018-03-11T11:42:42Z</time>
      </trkpt>
      <trkpt lat="47.51766" lon="-1.28595">
        <ele>37</ele>
        <time>2018-03-11T11:42:50Z</time>
      </trkpt>
      <trkpt lat="47.51756" lon="-1.28598">
        <ele>37</ele>
        <time>2018-03-11T11:42:58Z</time>
      </trkpt>
      <trkpt lat="47.51746" lon="-1.28603">
        <ele>36</ele>
        <time>2018-03-11T11:43:07Z</time>
      </trkpt>
      <trkpt lat="47.51735" lon="-1.28608">
        <ele>36</ele>
        <time>2018-03-11T11:43:16Z</time>
      </trkpt>
      <trkpt lat="47.51727" lon="-1.28614">
        <ele>36</ele>
        <time>2018-03-11T11:43:23Z</time>
      </trkpt>
      <trkpt lat="47.51719" lon="-1.28626">
        <ele>35</ele>
        <time>2018-03-11T11:43:31Z</time>
      </trkpt>
      <trkpt lat="47.51714" lon="-1.28639">
        <ele>35</ele>
        <time>2018-03-11T11:43:39Z</time>
      </trkpt>
      <trkpt lat="47.51713" lon="-1.28654">
        <ele>35</ele>
        <time>2018-03-11T11:43:47Z</time>
      </trkpt>
      <trkpt lat="47.51712" lon="-1.2867">
        <ele>34</ele>
        <time>2018-03-11T11:43:55Z</time>
      </trkpt>
      <trkpt lat="47.51712" lon="-1.28686">
        <ele>34</ele>
        <time>2018-03-11T11:44:03Z</time>
      </trkpt>
      <trkpt lat="47.5171" lon="-1.28701">
        <ele>34</ele>
        <time>2018-03-11T11:44:10Z</time>
      </trkpt>
      <trkpt lat="47.51707" lon="-1.28714">
        <ele>34</ele>
        <time>2018-03-11T11:44:17Z</time>
      </trkpt>
      <trkpt lat="47.51703" lon="-1.28726">
        <ele>34</ele>
        <time>2018-03-11T11:44:25Z</time>
      </trkpt>
      <trkpt lat="47.51698" lon="-1.28737">
        <ele>34</ele>
        <time>2018-03-11T11:44:32Z</time>
      </trkpt>
      <trkpt lat="47.51691" lon="-1.28748">
        <ele>34</ele>
        <time>2018-03-11T11:44:40Z</time>
      </trkpt>
      <trkpt lat="47.51684" lon="-1.28761">
        <ele>33</ele>
        <time>2018-03-11T11:44:47Z</time>
      </trkpt>
      <trkpt lat="47.51678" lon="-1.28772">
        <ele>33</ele>
        <time>2018-03-11T11:44:55Z</time>
      </trkpt>
      <trkpt lat="47.5167" lon="-1.28781">
        <ele>32</ele>
        <time>2018-03-11T11:45:04Z</time>
      </trkpt>
      <trkpt lat="47.51662" lon="-1.28793">
        <ele>32</ele>
        <time>2018-03-11T11:45:19Z</time>
      </trkpt>
      <trkpt lat="47.51654" lon="-1.28803">
        <ele>31</ele>
        <time>2018-03-11T11:45:26Z</time>
      </trkpt>
      <trkpt lat="47.51646" lon="-1.28813">
        <ele>31</ele>
        <time>2018-03-11T11:45:33Z</time>
      </trkpt>
      <trkpt lat="47.5164" lon="-1.28825">
        <ele>31</ele>
        <time>2018-03-11T11:45:40Z</time>
      </trkpt>
      <trkpt lat="47.51636" lon="-1.2884">
        <ele>31</ele>
        <time>2018-03-11T11:45:48Z</time>
      </trkpt>
      <trkpt lat="47.51632" lon="-1.28852">
        <ele>31</ele>
        <time>2018-03-11T11:45:55Z</time>
      </trkpt>
      <trkpt lat="47.51627" lon="-1.28866">
        <ele>31</ele>
        <time>2018-03-11T11:46:03Z</time>
      </trkpt>
      <trkpt lat="47.51623" lon="-1.28879">
        <ele>30</ele>
        <time>2018-03-11T11:46:10Z</time>
      </trkpt>
      <trkpt lat="47.51621" lon="-1.28892">
        <ele>30</ele>
        <time>2018-03-11T11:46:18Z</time>
      </trkpt>
      <trkpt lat="47.5162" lon="-1.28906">
        <ele>30</ele>
        <time>2018-03-11T11:46:25Z</time>
      </trkpt>
      <trkpt lat="47.51622" lon="-1.28921">
        <ele>30</ele>
        <time>2018-03-11T11:46:33Z</time>
      </trkpt>
      <trkpt lat="47.51621" lon="-1.28935">
        <ele>30</ele>
        <time>2018-03-11T11:46:43Z</time>
      </trkpt>
      <trkpt lat="47.51612" lon="-1.28938">
        <ele>30</ele>
        <time>2018-03-11T11:46:51Z</time>
      </trkpt>
      <trkpt lat="47.51603" lon="-1.28938">
        <ele>30</ele>
        <time>2018-03-11T11:46:59Z</time>
      </trkpt>
      <trkpt lat="47.51594" lon="-1.28942">
        <ele>30</ele>
        <time>2018-03-11T11:47:07Z</time>
      </trkpt>
      <trkpt lat="47.51585" lon="-1.28948">
        <ele>30</ele>
        <time>2018-03-11T11:47:16Z</time>
      </trkpt>
      <trkpt lat="47.51576" lon="-1.28955">
        <ele>28</ele>
        <time>2018-03-11T11:47:30Z</time>
      </trkpt>
      <trkpt lat="47.51567" lon="-1.2896">
        <ele>28</ele>
        <time>2018-03-11T11:47:39Z</time>
      </trkpt>
      <trkpt lat="47.51558" lon="-1.28964">
        <ele>28</ele>
        <time>2018-03-11T11:47:46Z</time>
      </trkpt>
      <trkpt lat="47.51549" lon="-1.28967">
        <ele>28</ele>
        <time>2018-03-11T11:47:53Z</time>
      </trkpt>
      <trkpt lat="47.51539" lon="-1.28962">
        <ele>28</ele>
        <time>2018-03-11T11:48:00Z</time>
      </trkpt>
      <trkpt lat="47.51532" lon="-1.28952">
        <ele>28</ele>
        <time>2018-03-11T11:48:07Z</time>
      </trkpt>
      <trkpt lat="47.51525" lon="-1.28942">
        <ele>28</ele>
        <time>2018-03-11T11:48:14Z</time>
      </trkpt>
      <trkpt lat="47.51517" lon="-1.28933">
        <ele>28</ele>
        <time>2018-03-11T11:48:22Z</time>
      </trkpt>
      <trkpt lat="47.51509" lon="-1.28925">
        <ele>27</ele>
        <time>2018-03-11T11:48:29Z</time>
      </trkpt>
      <trkpt lat="47.51501" lon="-1.28916">
        <ele>27</ele>
        <time>2018-03-11T11:48:36Z</time>
      </trkpt>
      <trkpt lat="47.51493" lon="-1.28907">
        <ele>27</ele>
        <time>2018-03-11T11:48:43Z</time>
      </trkpt>
      <trkpt lat="47.51485" lon="-1.28898">
        <ele>26</ele>
        <time>2018-03-11T11:48:51Z</time>
      </trkpt>
      <trkpt lat="47.51478" lon="-1.28889">
        <ele>26</ele>
        <time>2018-03-11T11:48:58Z</time>
      </trkpt>
      <trkpt lat="47.51469" lon="-1.28879">
        <ele>26</ele>
        <time>2018-03-11T11:49:06Z</time>
      </trkpt>
      <trkpt lat="47.51461" lon="-1.28871">
        <ele>26</ele>
        <time>2018-03-11T11:49:14Z</time>
      </trkpt>
      <trkpt lat="47.51453" lon="-1.28862">
        <ele>26</ele>
        <time>2018-03-11T11:49:21Z</time>
      </trkpt>
      <trkpt lat="47.51446" lon="-1.28852">
        <ele>26</ele>
        <time>2018-03-11T11:49:29Z</time>
      </trkpt>
      <trkpt lat="47.51438" lon="-1.28843">
        <ele>25</ele>
        <time>2018-03-11T11:49:36Z</time>
      </trkpt>
      <trkpt lat="47.5143" lon="-1.28833">
        <ele>25</ele>
        <time>2018-03-11T11:49:43Z</time>
      </trkpt>
      <trkpt lat="47.51423" lon="-1.28822">
        <ele>25</ele>
        <time>2018-03-11T11:49:51Z</time>
      </trkpt>
      <trkpt lat="47.51417" lon="-1.28809">
        <ele>25</ele>
        <time>2018-03-11T11:50:00Z</time>
      </trkpt>
      <trkpt lat="47.51407" lon="-1.28809">
        <ele>24</ele>
        <time>2018-03-11T11:50:15Z</time>
      </trkpt>
      <trkpt lat="47.51404" lon="-1.28812">
        <ele>24</ele>
        <time>2018-03-11T11:50:35Z</time>
      </trkpt>
    </trkseg>
  </trk>
</gpx>